Wetterdaten: Sonntag, 21.12.2014
Datum Zeit Temp. Aussen +5cm Feuchte Auss Luftdruck Regen Sonnenschein Regendauer Solar Windben
21.12.2014 00:00 4,4 C 2,8 C 93 % 1027,0 hPa 0,0 l/m 0 min 0 min 0 W/m 16,7 km/h (3 Bft)
21.12.2014 00:02 4,4 C 2,8 C 93 % 1027,0 hPa 0,0 l/m 0 min 0 min 0 W/m 12,6 km/h (3 Bft)
21.12.2014 00:05 4,4 C 2,8 C 93 % 1027,0 hPa 0,0 l/m 0 min 0 min 0 W/m 12,6 km/h (3 Bft)
21.12.2014 00:08 4,4 C 2,8 C 93 % 1027,1 hPa 0,0 l/m 0 min 0 min 0 W/m 16,7 km/h (3 Bft)
21.12.2014 00:10 4,4 C 2,8 C 94 % 1027,0 hPa 0,0 l/m 0 min 0 min 0 W/m 10,5 km/h (2 Bft)
21.12.2014 00:12 4,4 C 2,8 C 94 % 1027,0 hPa 0,0 l/m 0 min 0 min 0 W/m 14,6 km/h (3 Bft)
21.12.2014 00:14 4,4 C 2,8 C 94 % 1027,1 hPa 0,0 l/m 0 min 0 min 0 W/m 14,6 km/h (3 Bft)
21.12.2014 00:16 4,4 C 2,8 C 94 % 1027,1 hPa 0,0 l/m 0 min 0 min 0 W/m 14,6 km/h (3 Bft)
21.12.2014 00:18 4,4 C 2,8 C 94 % 1027,1 hPa 0,0 l/m 0 min 0 min 0 W/m 16,7 km/h (3 Bft)
21.12.2014 00:20 4,4 C 2,8 C 94 % 1027,1 hPa 0,0 l/m 0 min 0 min 0 W/m 18,8 km/h (3 Bft)
21.12.2014 00:22 4,4 C 2,8 C 94 % 1027,1 hPa 0,0 l/m 0 min 0 min 0 W/m 18,8 km/h (3 Bft)
21.12.2014 00:24 4,4 C 2,8 C 94 % 1027,2 hPa 0,0 l/m 0 min 0 min 0 W/m 20,9 km/h (4 Bft)
21.12.2014 00:26 4,4 C 2,8 C 94 % 1027,1 hPa 0,0 l/m 0 min 0 min 0 W/m 14,6 km/h (3 Bft)
21.12.2014 00:28 4,4 C 2,8 C 94 % 1027,2 hPa 0,0 l/m 0 min 0 min 0 W/m 18,8 km/h (3 Bft)
21.12.2014 00:30 4,4 C 2,8 C 94 % 1027,2 hPa 0,0 l/m 0 min 0 min 0 W/m 16,7 km/h (3 Bft)
21.12.2014 00:32 4,4 C 2,8 C 94 % 1027,2 hPa 0,0 l/m 0 min 0 min 0 W/m 18,8 km/h (3 Bft)
21.12.2014 00:34 4,5 C 2,8 C 94 % 1027,3 hPa 0,0 l/m 0 min 0 min 0 W/m 16,7 km/h (3 Bft)
21.12.2014 00:36 4,5 C 2,8 C 94 % 1027,3 hPa 0,0 l/m 0 min 0 min 0 W/m 14,6 km/h (3 Bft)
21.12.2014 00:38 4,5 C 2,8 C 94 % 1027,5 hPa 0,0 l/m 0 min 0 min 0 W/m 16,7 km/h (3 Bft)
21.12.2014 00:40 4,5 C 2,8 C 94 % 1027,5 hPa 0,0 l/m 0 min 0 min 0 W/m 16,7 km/h (3 Bft)
21.12.2014 00:42 4,5 C 2,8 C 94 % 1027,5 hPa 0,0 l/m 0 min 0 min 0 W/m 16,7 km/h (3 Bft)
21.12.2014 00:44 4,5 C 2,8 C 94 % 1027,6 hPa 0,0 l/m 0 min 0 min 0 W/m 16,7 km/h (3 Bft)
21.12.2014 00:46 4,5 C 2,8 C 94 % 1027,5 hPa 0,0 l/m 0 min 0 min 0 W/m 16,7 km/h (3 Bft)
21.12.2014 00:48 4,5 C 2,8 C 94 % 1027,5 hPa 0,0 l/m 0 min 0 min 0 W/m 18,8 km/h (3 Bft)
21.12.2014 00:50 4,5 C 2,8 C 94 % 1027,6 hPa 0,0 l/m 0 min 0 min 0 W/m 18,8 km/h (3 Bft)
21.12.2014 00:52 4,5 C 2,8 C 94 % 1027,5 hPa 0,0 l/m 0 min 0 min 0 W/m 16,7 km/h (3 Bft)
21.12.2014 00:54 4,5 C 2,8 C 94 % 1027,5 hPa 0,0 l/m 0 min 0 min 0 W/m 16,7 km/h (3 Bft)
21.12.2014 00:56 4,5 C 2,8 C 94 % 1027,6 hPa 0,0 l/m 0 min 0 min 0 W/m 16,7 km/h (3 Bft)
21.12.2014 00:58 4,5 C 2,8 C 94 % 1027,6 hPa 0,0 l/m 0 min 0 min 0 W/m 16,7 km/h (3 Bft)
21.12.2014 01:00 4,5 C 2,8 C 94 % 1027,6 hPa 0,0 l/m 0 min 0 min 0 W/m 18,8 km/h (3 Bft)
21.12.2014 01:02 4,5 C 2,8 C 94 % 1027,6 hPa 0,0 l/m 0 min 0 min 0 W/m 16,7 km/h (3 Bft)
21.12.2014 01:04 4,5 C 2,8 C 94 % 1027,6 hPa 0,0 l/m 0 min 0 min 0 W/m 20,9 km/h (4 Bft)
21.12.2014 01:06 4,5 C 2,8 C 94 % 1027,6 hPa 0,0 l/m 0 min 0 min 0 W/m 16,7 km/h (3 Bft)
21.12.2014 01:08 4,5 C 2,8 C 94 % 1027,6 hPa 0,0 l/m 0 min 0 min 0 W/m 14,6 km/h (3 Bft)
21.12.2014 01:10 4,5 C 2,8 C 94 % 1027,6 hPa 0,0 l/m 0 min 0 min 0 W/m 16,7 km/h (3 Bft)
21.12.2014 01:12 4,5 C 2,8 C 94 % 1027,6 hPa 0,0 l/m 0 min 0 min 0 W/m 16,7 km/h (3 Bft)
21.12.2014 01:14 4,5 C 2,8 C 94 % 1027,6 hPa 0,0 l/m 0 min 0 min 0 W/m 14,6 km/h (3 Bft)
21.12.2014 01:16 4,5 C 2,8 C 94 % 1027,6 hPa 0,0 l/m 0 min 0 min 0 W/m 18,8 km/h (3 Bft)
21.12.2014 01:18 4,5 C 2,8 C 94 % 1027,6 hPa 0,0 l/m 0 min 0 min 0 W/m 10,5 km/h (2 Bft)
21.12.2014 01:20 4,5 C 2,8 C 94 % 1027,6 hPa 0,0 l/m 0 min 0 min 0 W/m 14,6 km/h (3 Bft)
21.12.2014 01:22 4,5 C 2,8 C 94 % 1027,6 hPa 0,0 l/m 0 min 0 min 0 W/m 14,6 km/h (3 Bft)
21.12.2014 01:24 4,5 C 2,8 C 94 % 1027,6 hPa 0,0 l/m 0 min 0 min 0 W/m 14,6 km/h (3 Bft)
21.12.2014 01:26 4,5 C 2,8 C 94 % 1027,7 hPa 0,0 l/m 0 min 0 min 0 W/m 20,9 km/h (4 Bft)
21.12.2014 01:28 4,5 C 2,8 C 94 % 1027,7 hPa 0,0 l/m 0 min 0 min 0 W/m 16,7 km/h (3 Bft)
21.12.2014 01:30 4,5 C 2,8 C 94 % 1027,6 hPa 0,0 l/m 0 min 0 min 0 W/m 14,6 km/h (3 Bft)
21.12.2014 01:32 4,5 C 2,8 C 94 % 1027,6 hPa 0,0 l/m 0 min 0 min 0 W/m 12,6 km/h (3 Bft)
21.12.2014 01:34 4,5 C 2,8 C 94 % 1027,6 hPa 0,0 l/m 0 min 0 min 0 W/m 20,9 km/h (4 Bft)
21.12.2014 01:36 4,5 C 2,8 C 94 % 1027,6 hPa 0,0 l/m 0 min 0 min 0 W/m 12,6 km/h (3 Bft)
21.12.2014 01:38 4,5 C 2,8 C 94 % 1027,6 hPa 0,0 l/m 0 min 0 min 0 W/m 20,9 km/h (4 Bft)
21.12.2014 01:40 4,5 C 2,8 C 94 % 1027,7 hPa 0,0 l/m 0 min 0 min 0 W/m 12,6 km/h (3 Bft)
21.12.2014 01:42 4,4 C 2,8 C 94 % 1027,7 hPa 0,0 l/m 0 min 0 min 0 W/m 16,7 km/h (3 Bft)
21.12.2014 01:44 4,4 C 2,8 C 94 % 1027,7 hPa 0,0 l/m 0 min 0 min 0 W/m 14,6 km/h (3 Bft)
21.12.2014 01:46 4,4 C 2,8 C 94 % 1027,7 hPa 0,0 l/m 0 min 0 min 0 W/m 14,6 km/h (3 Bft)
21.12.2014 01:48 4,4 C 2,8 C 94 % 1027,7 hPa 0,0 l/m 0 min 0 min 0 W/m 16,7 km/h (3 Bft)
21.12.2014 01:50 4,4 C 2,8 C 94 % 1027,8 hPa 0,0 l/m 0 min 0 min 0 W/m 12,6 km/h (3 Bft)
21.12.2014 01:52 4,4 C 2,8 C 94 % 1027,8 hPa 0,0 l/m 0 min 0 min 0 W/m 14,6 km/h (3 Bft)
21.12.2014 01:54 4,4 C 2,8 C 94 % 1027,8 hPa 0,0 l/m 0 min 0 min 0 W/m 18,8 km/h (3 Bft)
21.12.2014 01:56 4,4 C 2,8 C 94 % 1027,8 hPa 0,0 l/m 0 min 0 min 0 W/m 12,6 km/h (3 Bft)
21.12.2014 01:58 4,4 C 2,8 C 94 % 1027,8 hPa 0,0 l/m 0 min 0 min 0 W/m 16,7 km/h (3 Bft)
21.12.2014 02:00 4,4 C 2,8 C 94 % 1027,8 hPa 0,0 l/m 0 min 0 min 0 W/m 16,7 km/h (3 Bft)
21.12.2014 02:02 4,4 C 2,8 C 94 % 1027,8 hPa 0,0 l/m 0 min 0 min 0 W/m 14,6 km/h (3 Bft)
21.12.2014 02:04 4,4 C 2,8 C 94 % 1027,8 hPa 0,0 l/m 0 min 0 min 0 W/m 14,6 km/h (3 Bft)
21.12.2014 02:06 4,4 C 2,8 C 94 % 1027,9 hPa 0,0 l/m 0 min 0 min 0 W/m 14,6 km/h (3 Bft)
21.12.2014 02:08 4,4 C 2,8 C 94 % 1028,0 hPa 0,0 l/m 0 min 0 min 0 W/m 12,6 km/h (3 Bft)
21.12.2014 02:10 4,4 C 2,8 C 94 % 1028,0 hPa 0,0 l/m 0 min 0 min 0 W/m 12,6 km/h (3 Bft)
21.12.2014 02:12 4,4 C 2,8 C 94 % 1028,0 hPa 0,0 l/m 0 min 0 min 0 W/m 16,7 km/h (3 Bft)
21.12.2014 02:14 4,4 C 2,8 C 94 % 1028,0 hPa 0,0 l/m 0 min 0 min 0 W/m 10,5 km/h (2 Bft)
21.12.2014 02:16 4,4 C 3,3 C 94 % 1028,1 hPa 0,0 l/m 0 min 0 min 0 W/m 14,6 km/h (3 Bft)
21.12.2014 02:18 4,4 C 3,3 C 94 % 1028,1 hPa 0,0 l/m 0 min 0 min 0 W/m 12,6 km/h (3 Bft)
21.12.2014 02:20 4,4 C 3,3 C 94 % 1028,1 hPa 0,0 l/m 0 min 0 min 0 W/m 14,6 km/h (3 Bft)
21.12.2014 02:22 4,5 C 3,3 C 94 % 1028,2 hPa 0,0 l/m 0 min 0 min 0 W/m 14,6 km/h (3 Bft)
21.12.2014 02:24 4,5 C 3,3 C 94 % 1028,3 hPa 0,0 l/m 0 min 0 min 0 W/m 10,5 km/h (2 Bft)
21.12.2014 02:26 4,5 C 3,3 C 94 % 1028,3 hPa 0,0 l/m 0 min 0 min 0 W/m 10,5 km/h (2 Bft)
21.12.2014 02:28 4,5 C 3,3 C 94 % 1028,4 hPa 0,0 l/m 0 min 0 min 0 W/m 14,6 km/h (3 Bft)
21.12.2014 02:30 4,6 C 3,3 C 95 % 1028,4 hPa 0,0 l/m 0 min 0 min 0 W/m 16,7 km/h (3 Bft)
21.12.2014 02:32 4,6 C 3,3 C 95 % 1028,4 hPa 0,0 l/m 0 min 0 min 0 W/m 14,6 km/h (3 Bft)
21.12.2014 02:34 4,7 C 3,3 C 95 % 1028,4 hPa 0,0 l/m 0 min 0 min 0 W/m 16,7 km/h (3 Bft)
21.12.2014 02:36 4,7 C 3,3 C 95 % 1028,5 hPa 0,0 l/m 0 min 0 min 0 W/m 16,7 km/h (3 Bft)
21.12.2014 02:38 4,7 C 3,3 C 95 % 1028,5 hPa 0,0 l/m 0 min 0 min 0 W/m 14,6 km/h (3 Bft)
21.12.2014 02:40 4,7 C 3,3 C 95 % 1028,5 hPa 0,0 l/m 0 min 0 min 0 W/m 12,6 km/h (3 Bft)
21.12.2014 02:42 4,8 C 3,3 C 95 % 1028,6 hPa 0,0 l/m 0 min 0 min 0 W/m 16,7 km/h (3 Bft)
21.12.2014 02:44 4,8 C 3,3 C 95 % 1028,6 hPa 0,0 l/m 0 min 0 min 0 W/m 16,7 km/h (3 Bft)
21.12.2014 02:46 4,8 C 3,3 C 95 % 1028,8 hPa 0,0 l/m 0 min 0 min 0 W/m 14,6 km/h (3 Bft)
21.12.2014 02:48 4,8 C 3,3 C 95 % 1028,8 hPa 0,0 l/m 0 min 0 min 0 W/m 14,6 km/h (3 Bft)
21.12.2014 02:50 4,8 C 3,3 C 95 % 1028,9 hPa 0,0 l/m 0 min 0 min 0 W/m 18,8 km/h (3 Bft)
21.12.2014 02:52 4,8 C 3,3 C 95 % 1028,9 hPa 0,0 l/m 0 min 0 min 0 W/m 16,7 km/h (3 Bft)
21.12.2014 02:54 4,9 C 3,3 C 95 % 1028,9 hPa 0,0 l/m 0 min 0 min 0 W/m 14,6 km/h (3 Bft)
21.12.2014 02:56 4,9 C 3,3 C 95 % 1028,9 hPa 0,0 l/m 0 min 0 min 0 W/m 18,8 km/h (3 Bft)
21.12.2014 02:58 4,9 C 3,3 C 95 % 1028,9 hPa 0,0 l/m 0 min 0 min 0 W/m 16,7 km/h (3 Bft)
21.12.2014 03:00 4,9 C 3,3 C 95 % 1028,9 hPa 0,0 l/m 0 min 0 min 0 W/m 12,6 km/h (3 Bft)
21.12.2014 03:02 4,9 C 3,3 C 95 % 1028,9 hPa 0,0 l/m 0 min 0 min 0 W/m 16,7 km/h (3 Bft)
21.12.2014 03:04 4,9 C 3,3 C 95 % 1028,9 hPa 0,0 l/m 0 min 0 min 0 W/m 16,7 km/h (3 Bft)
21.12.2014 03:06 4,9 C 3,3 C 95 % 1028,9 hPa 0,0 l/m 0 min 0 min 0 W/m 20,9 km/h (4 Bft)
21.12.2014 03:08 4,9 C 3,3 C 95 % 1028,9 hPa 0,0 l/m 0 min 0 min 0 W/m 10,5 km/h (2 Bft)
21.12.2014 03:10 4,9 C 3,3 C 95 % 1028,9 hPa 0,0 l/m 0 min 0 min 0 W/m 14,6 km/h (3 Bft)
21.12.2014 03:12 4,9 C 3,3 C 95 % 1028,9 hPa 0,0 l/m 0 min 0 min 0 W/m 14,6 km/h (3 Bft)
21.12.2014 03:14 4,9 C 3,3 C 95 % 1028,9 hPa 0,0 l/m 0 min 0 min 0 W/m 14,6 km/h (3 Bft)
21.12.2014 03:16 4,9 C 3,3 C 95 % 1028,9 hPa 0,0 l/m 0 min 0 min 0 W/m 12,6 km/h (3 Bft)
21.12.2014 03:18 4,9 C 3,3 C 94 % 1028,9 hPa 0,0 l/m 0 min 0 min 0 W/m 14,6 km/h (3 Bft)
21.12.2014 03:20 4,9 C 3,3 C 95 % 1028,9 hPa 0,0 l/m 0 min 0 min 0 W/m 18,8 km/h (3 Bft)
21.12.2014 03:22 4,9 C 3,3 C 95 % 1028,9 hPa 0,0 l/m 0 min 0 min 0 W/m 23,0 km/h (4 Bft)
21.12.2014 03:24 4,9 C 3,9 C 95 % 1029,0 hPa 0,0 l/m 0 min 0 min 0 W/m 23,0 km/h (4 Bft)
21.12.2014 03:26 5,0 C 3,9 C 95 % 1029,0 hPa 0,0 l/m 0 min 0 min 0 W/m 18,8 km/h (3 Bft)
21.12.2014 03:28 5,0 C 3,9 C 95 % 1029,0 hPa 0,0 l/m 0 min 0 min 0 W/m 25,1 km/h (4 Bft)
21.12.2014 03:30 5,0 C 3,9 C 95 % 1029,0 hPa 0,0 l/m 0 min 0 min 0 W/m 14,6 km/h (3 Bft)
21.12.2014 03:32 5,0 C 3,9 C 95 % 1029,0 hPa 0,0 l/m 0 min 0 min 0 W/m 18,8 km/h (3 Bft)
21.12.2014 03:34 5,1 C 3,9 C 95 % 1029,0 hPa 0,0 l/m 0 min 0 min 0 W/m 27,2 km/h (4 Bft)
21.12.2014 03:36 5,1 C 3,9 C 95 % 1029,1 hPa 0,0 l/m 0 min 0 min 0 W/m 25,1 km/h (4 Bft)
21.12.2014 03:38 5,1 C 3,9 C 95 % 1029,1 hPa 0,0 l/m 0 min 0 min 0 W/m 27,2 km/h (4 Bft)
21.12.2014 03:40 5,1 C 3,9 C 95 % 1029,1 hPa 0,0 l/m 0 min 0 min 0 W/m 25,1 km/h (4 Bft)
21.12.2014 03:42 5,1 C 3,9 C 95 % 1029,1 hPa 0,0 l/m 0 min 0 min 0 W/m 16,7 km/h (3 Bft)
21.12.2014 03:44 5,1 C 3,9 C 95 % 1029,1 hPa 0,0 l/m 0 min 0 min 0 W/m 18,8 km/h (3 Bft)
21.12.2014 03:46 5,1 C 3,9 C 95 % 1029,1 hPa 0,0 l/m 0 min 0 min 0 W/m 16,7 km/h (3 Bft)
21.12.2014 03:48 5,1 C 3,9 C 95 % 1029,1 hPa 0,0 l/m 0 min 0 min 0 W/m 20,9 km/h (4 Bft)
21.12.2014 03:50 5,1 C 3,9 C 95 % 1029,0 hPa 0,0 l/m 0 min 0 min 0 W/m 18,8 km/h (3 Bft)
21.12.2014 03:52 5,1 C 3,3 C 95 % 1029,0 hPa 0,0 l/m 0 min 0 min 0 W/m 14,6 km/h (3 Bft)
21.12.2014 03:54 5,1 C 3,9 C 95 % 1029,1 hPa 0,0 l/m 0 min 0 min 0 W/m 20,9 km/h (4 Bft)
21.12.2014 03:56 5,1 C 3,9 C 95 % 1029,0 hPa 0,0 l/m 0 min 0 min 0 W/m 25,1 km/h (4 Bft)
21.12.2014 03:58 5,1 C 3,9 C 95 % 1029,1 hPa 0,0 l/m 0 min 0 min 0 W/m 16,7 km/h (3 Bft)
21.12.2014 04:00 5,1 C 3,9 C 95 % 1029,0 hPa 0,0 l/m 0 min 0 min 0 W/m 14,6 km/h (3 Bft)
21.12.2014 04:02 5,1 C 3,9 C 95 % 1029,0 hPa 0,0 l/m 0 min 0 min 0 W/m 14,6 km/h (3 Bft)
21.12.2014 04:04 5,1 C 3,9 C 95 % 1029,1 hPa 0,0 l/m 0 min 0 min 0 W/m 16,7 km/h (3 Bft)
21.12.2014 04:06 5,1 C 3,9 C 95 % 1029,1 hPa 0,0 l/m 0 min 0 min 0 W/m 14,6 km/h (3 Bft)
21.12.2014 04:08 5,1 C 3,9 C 95 % 1029,0 hPa 0,0 l/m 0 min 0 min 0 W/m 12,6 km/h (3 Bft)
21.12.2014 04:10 5,1 C 3,3 C 95 % 1029,0 hPa 0,0 l/m 0 min 0 min 0 W/m 14,6 km/h (3 Bft)
21.12.2014 04:12 5,1 C 3,3 C 95 % 1029,0 hPa 0,0 l/m 0 min 0 min 0 W/m 18,8 km/h (3 Bft)
21.12.2014 04:14 5,1 C 3,3 C 95 % 1028,9 hPa 0,0 l/m 0 min 0 min 0 W/m 18,8 km/h (3 Bft)
21.12.2014 04:16 5,1 C 3,3 C 95 % 1028,9 hPa 0,0 l/m 0 min 0 min 0 W/m 16,7 km/h (3 Bft)
21.12.2014 04:18 5,0 C 3,3 C 95 % 1029,0 hPa 0,0 l/m 0 min 0 min 0 W/m 16,7 km/h (3 Bft)
21.12.2014 04:20 5,0 C 3,3 C 94 % 1029,0 hPa 0,0 l/m 0 min 0 min 0 W/m 18,8 km/h (3 Bft)
21.12.2014 04:22 5,0 C 3,3 C 94 % 1029,0 hPa 0,0 l/m 0 min 0 min 0 W/m 16,7 km/h (3 Bft)
21.12.2014 04:24 5,0 C 3,3 C 94 % 1029,0 hPa 0,0 l/m 0 min 0 min 0 W/m 23,0 km/h (4 Bft)
21.12.2014 04:26 5,0 C 3,3 C 94 % 1029,0 hPa 0,0 l/m 0 min 0 min 0 W/m 18,8 km/h (3 Bft)
21.12.2014 04:28 4,9 C 3,3 C 94 % 1029,0 hPa 0,0 l/m 0 min 0 min 0 W/m 18,8 km/h (3 Bft)
21.12.2014 04:30 4,9 C 3,3 C 94 % 1029,0 hPa 0,0 l/m 0 min 0 min 0 W/m 20,9 km/h (4 Bft)
21.12.2014 04:32 4,9 C 3,3 C 94 % 1029,0 hPa 0,0 l/m 0 min 0 min 0 W/m 16,7 km/h (3 Bft)
21.12.2014 04:34 4,9 C 3,3 C 94 % 1029,0 hPa 0,0 l/m 0 min 0 min 0 W/m 18,8 km/h (3 Bft)
21.12.2014 04:36 4,9 C 3,3 C 94 % 1029,1 hPa 0,0 l/m 0 min 0 min 0 W/m 14,6 km/h (3 Bft)
21.12.2014 04:38 4,9 C 3,3 C 94 % 1029,1 hPa 0,0 l/m 0 min 0 min 0 W/m 20,9 km/h (4 Bft)
21.12.2014 04:40 4,9 C 3,3 C 94 % 1029,0 hPa 0,0 l/m 0 min 0 min 0 W/m 18,8 km/h (3 Bft)
21.12.2014 04:42 4,9 C 3,3 C 94 % 1029,0 hPa 0,0 l/m 0 min 0 min 0 W/m 18,8 km/h (3 Bft)
21.12.2014 04:44 4,8 C 3,3 C 94 % 1029,0 hPa 0,0 l/m 0 min 0 min 0 W/m 18,8 km/h (3 Bft)
21.12.2014 04:46 4,8 C 3,3 C 94 % 1029,0 hPa 0,0 l/m 0 min 0 min 0 W/m 18,8 km/h (3 Bft)
21.12.2014 04:48 4,8 C 3,3 C 94 % 1029,0 hPa 0,0 l/m 0 min 0 min 0 W/m 20,9 km/h (4 Bft)
21.12.2014 04:50 4,8 C 3,3 C 94 % 1029,0 hPa 0,0 l/m 0 min 0 min 0 W/m 18,8 km/h (3 Bft)
21.12.2014 04:52 4,8 C 3,3 C 94 % 1029,0 hPa 0,0 l/m 0 min 0 min 0 W/m 18,8 km/h (3 Bft)
21.12.2014 04:54 4,7 C 3,3 C 94 % 1028,9 hPa 0,0 l/m 0 min 0 min 0 W/m 18,8 km/h (3 Bft)
21.12.2014 04:56 4,7 C 3,3 C 94 % 1029,0 hPa 0,0 l/m 0 min 0 min 0 W/m 20,9 km/h (4 Bft)
21.12.2014 04:58 4,7 C 3,3 C 94 % 1029,0 hPa 0,0 l/m 0 min 0 min 0 W/m 20,9 km/h (4 Bft)
21.12.2014 05:00 4,7 C 3,3 C 94 % 1028,9 hPa 0,0 l/m 0 min 0 min 0 W/m 18,8 km/h (3 Bft)
21.12.2014 05:02 4,7 C 3,3 C 94 % 1028,9 hPa 0,0 l/m 0 min 0 min 0 W/m 18,8 km/h (3 Bft)
21.12.2014 05:04 4,7 C 3,3 C 94 % 1029,0 hPa 0,0 l/m 0 min 0 min 0 W/m 20,9 km/h (4 Bft)
21.12.2014 05:06 4,6 C 2,8 C 94 % 1029,0 hPa 0,0 l/m 0 min 0 min 0 W/m 14,6 km/h (3 Bft)
21.12.2014 05:08 4,6 C 2,8 C 94 % 1029,0 hPa 0,0 l/m 0 min 0 min 0 W/m 14,6 km/h (3 Bft)
21.12.2014 05:10 4,6 C 2,8 C 94 % 1029,0 hPa 0,0 l/m 0 min 0 min 0 W/m 16,7 km/h (3 Bft)
21.12.2014 05:12 4,6 C 2,8 C 94 % 1029,0 hPa 0,0 l/m 0 min 0 min 0 W/m 18,8 km/h (3 Bft)
21.12.2014 05:14 4,5 C 2,8 C 94 % 1029,0 hPa 0,0 l/m 0 min 0 min 0 W/m 18,8 km/h (3 Bft)
21.12.2014 05:16 4,5 C 2,8 C 94 % 1029,0 hPa 0,0 l/m 0 min 0 min 0 W/m 18,8 km/h (3 Bft)
21.12.2014 05:18 4,5 C 2,8 C 94 % 1029,1 hPa 0,0 l/m 0 min 0 min 0 W/m 18,8 km/h (3 Bft)
21.12.2014 05:20 4,4 C 2,8 C 94 % 1029,0 hPa 0,0 l/m 0 min 0 min 0 W/m 16,7 km/h (3 Bft)
21.12.2014 05:22 4,4 C 2,8 C 94 % 1029,0 hPa 0,0 l/m 0 min 0 min 0 W/m 12,6 km/h (3 Bft)
21.12.2014 05:24 4,4 C 2,8 C 94 % 1029,0 hPa 0,0 l/m 0 min 0 min 0 W/m 18,8 km/h (3 Bft)
21.12.2014 05:26 4,4 C 2,8 C 94 % 1029,0 hPa 0,0 l/m 0 min 0 min 0 W/m 20,9 km/h (4 Bft)
21.12.2014 05:28 4,4 C 2,8 C 94 % 1029,0 hPa 0,0 l/m 0 min 0 min 0 W/m 23,0 km/h (4 Bft)
21.12.2014 05:30 4,4 C 2,8 C 94 % 1029,0 hPa 0,0 l/m 0 min 0 min 0 W/m 20,9 km/h (4 Bft)
21.12.2014 05:32 4,3 C 2,8 C 94 % 1029,0 hPa 0,0 l/m 0 min 0 min 0 W/m 18,8 km/h (3 Bft)
21.12.2014 05:34 4,3 C 2,8 C 95 % 1029,0 hPa 0,0 l/m 0 min 0 min 0 W/m 16,7 km/h (3 Bft)
21.12.2014 05:36 4,3 C 2,8 C 95 % 1029,0 hPa 0,0 l/m 0 min 0 min 0 W/m 18,8 km/h (3 Bft)
21.12.2014 05:38 4,3 C 2,8 C 95 % 1029,0 hPa 0,0 l/m 0 min 0 min 0 W/m 16,7 km/h (3 Bft)
21.12.2014 05:40 4,3 C 2,8 C 95 % 1029,1 hPa 0,0 l/m 0 min 0 min 0 W/m 20,9 km/h (4 Bft)
21.12.2014 05:42 4,2 C 2,8 C 95 % 1029,0 hPa 0,0 l/m 0 min 0 min 0 W/m 16,7 km/h (3 Bft)
21.12.2014 05:44 4,2 C 2,8 C 95 % 1029,1 hPa 0,0 l/m 0 min 0 min 0 W/m 18,8 km/h (3 Bft)
21.12.2014 05:46 4,2 C 2,8 C 95 % 1029,0 hPa 0,0 l/m 0 min 0 min 0 W/m 20,9 km/h (4 Bft)
21.12.2014 05:48 4,2 C 2,8 C 94 % 1029,0 hPa 0,0 l/m 0 min 0 min 0 W/m 20,9 km/h (4 Bft)
21.12.2014 05:50 4,2 C 2,8 C 94 % 1029,0 hPa 0,0 l/m 0 min 0 min 0 W/m 18,8 km/h (3 Bft)
21.12.2014 05:52 4,2 C 2,8 C 95 % 1028,9 hPa 0,0 l/m 0 min 0 min 0 W/m 18,8 km/h (3 Bft)
21.12.2014 05:54 4,2 C 2,8 C 95 % 1028,9 hPa 0,0 l/m 0 min 0 min 0 W/m 20,9 km/h (4 Bft)
21.12.2014 05:56 4,2 C 2,8 C 95 % 1028,9 hPa 0,0 l/m 0 min 0 min 0 W/m 20,9 km/h (4 Bft)
21.12.2014 05:58 4,1 C 2,8 C 95 % 1029,0 hPa 0,0 l/m 0 min 0 min 0 W/m 18,8 km/h (3 Bft)
21.12.2014 06:00 4,1 C 2,8 C 95 % 1029,0 hPa 0,0 l/m 0 min 0 min 0 W/m 20,9 km/h (4 Bft)
21.12.2014 06:02 4,1 C 2,8 C 95 % 1029,0 hPa 0,0 l/m 0 min 0 min 0 W/m 23,0 km/h (4 Bft)
21.12.2014 06:05 4,1 C 2,8 C 95 % 1029,0 hPa 0,0 l/m 0 min 0 min 0 W/m 20,9 km/h (4 Bft)
21.12.2014 06:06 4,1 C 2,8 C 95 % 1029,0 hPa 0,0 l/m 0 min 0 min 0 W/m 16,7 km/h (3 Bft)
21.12.2014 06:08 4,1 C 2,8 C 95 % 1029,0 hPa 0,0 l/m 0 min 0 min 0 W/m 16,7 km/h (3 Bft)
21.12.2014 06:10 4,1 C 2,8 C 95 % 1029,1 hPa 0,0 l/m 0 min 0 min 0 W/m 16,7 km/h (3 Bft)
21.12.2014 06:12 4,1 C 2,8 C 95 % 1029,1 hPa 0,0 l/m 0 min 0 min 0 W/m 14,6 km/h (3 Bft)
21.12.2014 06:14 4,1 C 2,8 C 95 % 1029,1 hPa 0,0 l/m 0 min 0 min 0 W/m 18,8 km/h (3 Bft)
21.12.2014 06:16 4,1 C 2,8 C 95 % 1029,1 hPa 0,0 l/m 0 min 0 min 0 W/m 23,0 km/h (4 Bft)
21.12.2014 06:18 4,0 C 2,8 C 95 % 1029,1 hPa 0,0 l/m 0 min 0 min 0 W/m 18,8 km/h (3 Bft)
21.12.2014 06:20 4,0 C 2,8 C 95 % 1029,0 hPa 0,0 l/m 0 min 0 min 0 W/m 16,7 km/h (3 Bft)
21.12.2014 06:22 4,0 C 2,8 C 95 % 1029,0 hPa 0,0 l/m 0 min 0 min 0 W/m 14,6 km/h (3 Bft)
21.12.2014 06:24 3,9 C 2,8 C 95 % 1029,0 hPa 0,0 l/m 0 min 0 min 0 W/m 14,6 km/h (3 Bft)
21.12.2014 06:26 3,9 C 2,8 C 95 % 1029,0 hPa 0,0 l/m 0 min 0 min 0 W/m 14,6 km/h (3 Bft)
21.12.2014 06:28 3,9 C 2,8 C 95 % 1029,1 hPa 0,0 l/m 0 min 0 min 0 W/m 16,7 km/h (3 Bft)
21.12.2014 06:30 3,9 C 2,8 C 95 % 1029,1 hPa 0,0 l/m 0 min 0 min 0 W/m 18,8 km/h (3 Bft)
21.12.2014 06:32 3,9 C 2,8 C 95 % 1029,1 hPa 0,0 l/m 0 min 0 min 0 W/m 20,9 km/h (4 Bft)
21.12.2014 06:34 3,9 C 2,8 C 95 % 1029,1 hPa 0,0 l/m 0 min 0 min 0 W/m 18,8 km/h (3 Bft)
21.12.2014 06:36 3,9 C 2,8 C 95 % 1029,0 hPa 0,0 l/m 0 min 0 min 0 W/m 14,6 km/h (3 Bft)
21.12.2014 06:38 3,9 C 2,8 C 95 % 1029,0 hPa 0,0 l/m 0 min 0 min 0 W/m 18,8 km/h (3 Bft)
21.12.2014 06:40 3,9 C 2,8 C 95 % 1029,1 hPa 0,0 l/m 0 min 0 min 0 W/m 18,8 km/h (3 Bft)
21.12.2014 06:42 3,9 C 2,8 C 95 % 1029,1 hPa 0,0 l/m 0 min 0 min 0 W/m 20,9 km/h (4 Bft)
21.12.2014 06:44 3,9 C 2,8 C 95 % 1029,1 hPa 0,0 l/m 0 min 0 min 0 W/m 16,7 km/h (3 Bft)
21.12.2014 06:46 3,9 C 2,8 C 95 % 1029,0 hPa 0,0 l/m 0 min 0 min 0 W/m 16,7 km/h (3 Bft)
21.12.2014 06:48 3,8 C 2,8 C 95 % 1029,1 hPa 0,0 l/m 0 min 0 min 0 W/m 18,8 km/h (3 Bft)
21.12.2014 06:50 3,8 C 2,8 C 95 % 1029,0 hPa 0,0 l/m 0 min 0 min 0 W/m 16,7 km/h (3 Bft)
21.12.2014 06:52 3,8 C 2,8 C 95 % 1029,0 hPa 0,0 l/m 0 min 0 min 0 W/m 18,8 km/h (3 Bft)
21.12.2014 06:54 3,8 C 2,8 C 95 % 1029,0 hPa 0,0 l/m 0 min 0 min 0 W/m 16,7 km/h (3 Bft)
21.12.2014 06:56 3,8 C 2,8 C 95 % 1029,0 hPa 0,0 l/m 0 min 0 min 0 W/m 14,6 km/h (3 Bft)
21.12.2014 06:58 3,8 C 2,8 C 95 % 1029,1 hPa 0,0 l/m 0 min 0 min 0 W/m 16,7 km/h (3 Bft)
21.12.2014 07:00 3,8 C 2,8 C 95 % 1029,1 hPa 0,0 l/m 0 min 0 min 0 W/m 20,9 km/h (4 Bft)
21.12.2014 07:02 3,8 C 2,8 C 95 % 1029,0 hPa 0,0 l/m 0 min 0 min 0 W/m 16,7 km/h (3 Bft)
21.12.2014 07:04 3,8 C 2,8 C 95 % 1029,1 hPa 0,0 l/m 0 min 0 min 0 W/m 18,8 km/h (3 Bft)
21.12.2014 07:06 3,8 C 2,8 C 95 % 1029,1 hPa 0,0 l/m 0 min 0 min 0 W/m 16,7 km/h (3 Bft)
21.12.2014 07:08 3,8 C 2,8 C 95 % 1029,1 hPa 0,0 l/m 0 min 0 min 0 W/m 16,7 km/h (3 Bft)
21.12.2014 07:10 3,8 C 2,8 C 95 % 1029,0 hPa 0,0 l/m 0 min 0 min 0 W/m 14,6 km/h (3 Bft)
21.12.2014 07:12 3,8 C 2,8 C 95 % 1029,1 hPa 0,0 l/m 0 min 0 min 0 W/m 16,7 km/h (3 Bft)
21.12.2014 07:14 3,8 C 2,8 C 96 % 1029,1 hPa 0,0 l/m 0 min 0 min 0 W/m 20,9 km/h (4 Bft)
21.12.2014 07:16 3,8 C 2,8 C 96 % 1029,1 hPa 0,0 l/m 0 min 0 min 0 W/m 16,7 km/h (3 Bft)
21.12.2014 07:18 3,8 C 2,8 C 96 % 1029,1 hPa 0,0 l/m 0 min 0 min 0 W/m 18,8 km/h (3 Bft)
21.12.2014 07:20 3,8 C 2,8 C 96 % 1029,2 hPa 0,0 l/m 0 min 0 min 0 W/m 25,1 km/h (4 Bft)
21.12.2014 07:22 3,8 C 2,8 C 96 % 1029,1 hPa 0,0 l/m 0 min 0 min 0 W/m 20,9 km/h (4 Bft)
21.12.2014 07:24 3,9 C 2,8 C 96 % 1029,1 hPa 0,0 l/m 0 min 0 min 0 W/m 20,9 km/h (4 Bft)
21.12.2014 07:26 3,9 C 2,8 C 96 % 1029,1 hPa 0,0 l/m 0 min 0 min 0 W/m 16,7 km/h (3 Bft)
21.12.2014 07:28 3,9 C 2,8 C 96 % 1029,1 hPa 0,0 l/m 0 min 0 min 0 W/m 18,8 km/h (3 Bft)
21.12.2014 07:30 3,9 C 2,8 C 96 % 1029,1 hPa 0,0 l/m 0 min 0 min 0 W/m 18,8 km/h (3 Bft)
21.12.2014 07:32 3,9 C 3,3 C 96 % 1029,1 hPa 0,0 l/m 0 min 0 min 0 W/m 20,9 km/h (4 Bft)
21.12.2014 07:34 3,9 C 3,3 C 96 % 1029,0 hPa 0,0 l/m 0 min 0 min 0 W/m 18,8 km/h (3 Bft)
21.12.2014 07:36 3,9 C 3,3 C 96 % 1028,9 hPa 0,0 l/m 0 min 0 min 0 W/m 18,8 km/h (3 Bft)
21.12.2014 07:38 4,0 C 3,3 C 96 % 1029,0 hPa 0,0 l/m 0 min 0 min 0 W/m 14,6 km/h (3 Bft)
21.12.2014 07:40 4,0 C 3,3 C 96 % 1029,1 hPa 0,0 l/m 0 min 0 min 0 W/m 18,8 km/h (3 Bft)
21.12.2014 07:42 4,0 C 3,3 C 96 % 1029,1 hPa 0,0 l/m 0 min 0 min 0 W/m 25,1 km/h (4 Bft)
21.12.2014 07:44 4,1 C 3,3 C 96 % 1029,1 hPa 0,0 l/m 0 min 0 min 0 W/m 23,0 km/h (4 Bft)
21.12.2014 07:46 4,1 C 3,3 C 96 % 1029,1 hPa 0,0 l/m 0 min 0 min 0 W/m 27,2 km/h (4 Bft)
21.12.2014 07:48 4,1 C 3,3 C 96 % 1029,0 hPa 0,0 l/m 0 min 0 min 0 W/m 27,2 km/h (4 Bft)
21.12.2014 07:50 4,2 C 3,3 C 96 % 1029,0 hPa 0,0 l/m 0 min 0 min 0 W/m 18,8 km/h (3 Bft)
21.12.2014 07:52 4,2 C 3,3 C 96 % 1029,1 hPa 0,0 l/m 0 min 0 min 0 W/m 27,2 km/h (4 Bft)
21.12.2014 07:54 4,2 C 3,3 C 96 % 1029,3 hPa 0,0 l/m 0 min 0 min 0 W/m 23,0 km/h (4 Bft)
21.12.2014 07:56 4,2 C 3,3 C 96 % 1029,0 hPa 0,0 l/m 0 min 0 min 0 W/m 27,2 km/h (4 Bft)
21.12.2014 07:58 4,2 C 3,3 C 96 % 1028,9 hPa 0,0 l/m 0 min 0 min 0 W/m 23,0 km/h (4 Bft)
21.12.2014 08:00 4,2 C 3,3 C 96 % 1028,9 hPa 0,0 l/m 0 min 0 min 0 W/m 18,8 km/h (3 Bft)
21.12.2014 08:02 4,3 C 3,3 C 96 % 1028,9 hPa 0,0 l/m 0 min 0 min 0 W/m 18,8 km/h (3 Bft)
21.12.2014 08:04 4,3 C 3,3 C 96 % 1029,1 hPa 0,0 l/m 0 min 0 min 0 W/m 25,1 km/h (4 Bft)
21.12.2014 08:06 4,3 C 3,3 C 96 % 1029,1 hPa 0,0 l/m 0 min 0 min 0 W/m 18,8 km/h (3 Bft)
21.12.2014 08:08 4,3 C 3,3 C 96 % 1029,1 hPa 0,0 l/m 0 min 0 min 0 W/m 20,9 km/h (4 Bft)
21.12.2014 08:10 4,4 C 3,3 C 96 % 1029,0 hPa 0,0 l/m 0 min 0 min 0 W/m 18,8 km/h (3 Bft)
21.12.2014 08:12 4,4 C 3,3 C 96 % 1029,0 hPa 0,0 l/m 0 min 0 min 0 W/m 16,7 km/h (3 Bft)
21.12.2014 08:14 4,4 C 3,3 C 96 % 1029,0 hPa 0,0 l/m 0 min 0 min 0 W/m 25,1 km/h (4 Bft)
21.12.2014 08:16 4,4 C 3,3 C 96 % 1029,0 hPa 0,0 l/m 0 min 0 min 0 W/m 20,9 km/h (4 Bft)
21.12.2014 08:18 4,4 C 3,3 C 96 % 1029,0 hPa 0,0 l/m 0 min 0 min 0 W/m 25,1 km/h (4 Bft)
21.12.2014 08:20 4,4 C 3,3 C 96 % 1029,0 hPa 0,0 l/m 0 min 0 min 0 W/m 20,9 km/h (4 Bft)
21.12.2014 08:22 4,5 C 3,3 C 96 % 1029,1 hPa 0,0 l/m 0 min 0 min 0 W/m 18,8 km/h (3 Bft)
21.12.2014 08:24 4,5 C 3,3 C 96 % 1029,0 hPa 0,0 l/m 0 min 0 min 0 W/m 25,1 km/h (4 Bft)
21.12.2014 08:26 4,5 C 3,9 C 96 % 1029,1 hPa 0,0 l/m 0 min 0 min 0 W/m 16,7 km/h (3 Bft)
21.12.2014 08:28 4,5 C 3,9 C 96 % 1029,0 hPa 0,0 l/m 0 min 0 min 0 W/m 14,6 km/h (3 Bft)
21.12.2014 08:30 4,5 C 3,3 C 96 % 1029,0 hPa 0,0 l/m 0 min 0 min 0 W/m 16,7 km/h (3 Bft)
21.12.2014 08:32 4,5 C 3,3 C 96 % 1029,0 hPa 0,0 l/m 0 min 0 min 0 W/m 18,8 km/h (3 Bft)
21.12.2014 08:34 4,6 C 3,3 C 96 % 1028,9 hPa 0,0 l/m 0 min 0 min 0 W/m 14,6 km/h (3 Bft)
21.12.2014 08:36 4,6 C 3,3 C 96 % 1028,9 hPa 0,0 l/m 0 min 0 min 3 W/m 16,7 km/h (3 Bft)
21.12.2014 08:38 4,6 C 3,3 C 96 % 1029,0 hPa 0,0 l/m 0 min 0 min 5 W/m 12,6 km/h (3 Bft)
21.12.2014 08:40 4,6 C 3,3 C 96 % 1029,0 hPa 0,0 l/m 0 min 0 min 7 W/m 18,8 km/h (3 Bft)
21.12.2014 08:42 4,6 C 3,3 C 96 % 1029,0 hPa 0,0 l/m 0 min 0 min 8 W/m 10,5 km/h (2 Bft)
21.12.2014 08:44 4,5 C 3,3 C 96 % 1029,0 hPa 0,0 l/m 0 min 0 min 7 W/m 14,6 km/h (3 Bft)
21.12.2014 08:46 4,5 C 3,3 C 96 % 1029,1 hPa 0,0 l/m 0 min 0 min 8 W/m 16,7 km/h (3 Bft)
21.12.2014 08:48 4,5 C 3,3 C 96 % 1029,0 hPa 0,0 l/m 0 min 0 min 9 W/m 20,9 km/h (4 Bft)
21.12.2014 08:50 4,5 C 3,3 C 96 % 1029,1 hPa 0,0 l/m 0 min 0 min 10 W/m 14,6 km/h (3 Bft)
21.12.2014 08:52 4,5 C 3,3 C 96 % 1029,0 hPa 0,0 l/m 0 min 0 min 11 W/m 16,7 km/h (3 Bft)
21.12.2014 08:54 4,5 C 3,3 C 96 % 1029,0 hPa 0,0 l/m 0 min 0 min 11 W/m 14,6 km/h (3 Bft)
21.12.2014 08:56 4,4 C 3,3 C 96 % 1029,0 hPa 0,0 l/m 0 min 0 min 12 W/m 18,8 km/h (3 Bft)
21.12.2014 08:58 4,4 C 3,3 C 96 % 1029,0 hPa 0,0 l/m 0 min 0 min 12 W/m 14,6 km/h (3 Bft)
21.12.2014 09:00 4,4 C 3,3 C 96 % 1029,1 hPa 0,0 l/m 0 min 0 min 13 W/m 23,0 km/h (4 Bft)
21.12.2014 09:02 4,4 C 3,3 C 96 % 1029,1 hPa 0,0 l/m 0 min 0 min 15 W/m 18,8 km/h (3 Bft)
21.12.2014 09:04 4,4 C 3,3 C 96 % 1029,1 hPa 0,0 l/m 0 min 0 min 16 W/m 20,9 km/h (4 Bft)
21.12.2014 09:06 4,4 C 3,3 C 96 % 1029,1 hPa 0,0 l/m 0 min 0 min 17 W/m 23,0 km/h (4 Bft)
21.12.2014 09:08 4,4 C 3,3 C 96 % 1029,0 hPa 0,0 l/m 0 min 0 min 18 W/m 20,9 km/h (4 Bft)
21.12.2014 09:10 4,4 C 3,3 C 96 % 1028,9 hPa 0,0 l/m 0 min 0 min 20 W/m 18,8 km/h (3 Bft)
21.12.2014 09:12 4,4 C 3,3 C 96 % 1028,9 hPa 0,0 l/m 0 min 0 min 22 W/m 18,8 km/h (3 Bft)
21.12.2014 09:14 4,4 C 3,3 C 96 % 1028,9 hPa 0,0 l/m 0 min 0 min 26 W/m 16,7 km/h (3 Bft)
21.12.2014 09:16 4,4 C 3,3 C 96 % 1028,9 hPa 0,0 l/m 0 min 0 min 30 W/m 18,8 km/h (3 Bft)
21.12.2014 09:18 4,4 C 3,3 C 96 % 1028,9 hPa 0,0 l/m 2 min 0 min 36 W/m 23,0 km/h (4 Bft)
21.12.2014 09:20 4,4 C 3,3 C 96 % 1028,9 hPa 0,0 l/m 2 min 0 min 44 W/m 27,2 km/h (4 Bft)
21.12.2014 09:22 4,4 C 3,3 C 96 % 1029,0 hPa 0,0 l/m 2 min 0 min 52 W/m 16,7 km/h (3 Bft)
21.12.2014 09:24 4,4 C 3,3 C 96 % 1029,1 hPa 0,0 l/m 2 min 0 min 64 W/m 20,9 km/h (4 Bft)
21.12.2014 09:26 4,4 C 3,9 C 96 % 1029,1 hPa 0,0 l/m 2 min 0 min 74 W/m 18,8 km/h (3 Bft)
21.12.2014 09:28 4,5 C 3,9 C 96 % 1029,1 hPa 0,0 l/m 2 min 0 min 77 W/m 20,9 km/h (4 Bft)
21.12.2014 09:30 4,5 C 3,9 C 96 % 1029,0 hPa 0,0 l/m 2 min 0 min 76 W/m 18,8 km/h (3 Bft)
21.12.2014 09:32 4,6 C 3,9 C 96 % 1028,9 hPa 0,0 l/m 2 min 0 min 76 W/m 18,8 km/h (3 Bft)
21.12.2014 09:34 4,6 C 3,9 C 96 % 1029,0 hPa 0,0 l/m 2 min 0 min 80 W/m 23,0 km/h (4 Bft)
21.12.2014 09:36 4,6 C 3,9 C 96 % 1028,9 hPa 0,0 l/m 2 min 0 min 79 W/m 16,7 km/h (3 Bft)
21.12.2014 09:38 4,7 C 3,9 C 96 % 1029,0 hPa 0,0 l/m 2 min 0 min 73 W/m 23,0 km/h (4 Bft)
21.12.2014 09:40 4,7 C 3,9 C 96 % 1028,9 hPa 0,0 l/m 2 min 0 min 81 W/m 20,9 km/h (4 Bft)
21.12.2014 09:42 4,7 C 3,9 C 96 % 1029,0 hPa 0,0 l/m 2 min 0 min 98 W/m 23,0 km/h (4 Bft)
21.12.2014 09:44 4,7 C 3,9 C 96 % 1029,0 hPa 0,0 l/m 2 min 0 min 111 W/m 27,2 km/h (4 Bft)
21.12.2014 09:46 4,8 C 4,4 C 96 % 1028,8 hPa 0,0 l/m 2 min 0 min 113 W/m 25,1 km/h (4 Bft)
21.12.2014 09:48 4,8 C 4,4 C 96 % 1028,9 hPa 0,0 l/m 2 min 0 min 101 W/m 18,8 km/h (3 Bft)
21.12.2014 09:50 4,8 C 4,4 C 96 % 1028,9 hPa 0,0 l/m 2 min 0 min 80 W/m 25,1 km/h (4 Bft)
21.12.2014 09:52 4,9 C 4,4 C 96 % 1028,9 hPa 0,0 l/m 2 min 0 min 69 W/m 16,7 km/h (3 Bft)
21.12.2014 09:54 4,9 C 4,4 C 96 % 1028,9 hPa 0,0 l/m 0 min 0 min 67 W/m 18,8 km/h (3 Bft)
21.12.2014 09:56 5,0 C 4,4 C 96 % 1028,9 hPa 0,0 l/m 0 min 0 min 69 W/m 18,8 km/h (3 Bft)
21.12.2014 09:58 5,0 C 4,4 C 96 % 1029,0 hPa 0,0 l/m 0 min 0 min 65 W/m 27,2 km/h (4 Bft)
21.12.2014 10:00 5,1 C 4,4 C 96 % 1028,9 hPa 0,0 l/m 0 min 0 min 63 W/m 23,0 km/h (4 Bft)
21.12.2014 10:02 5,1 C 4,4 C 96 % 1028,8 hPa 0,0 l/m 0 min 0 min 66 W/m 23,0 km/h (4 Bft)
21.12.2014 10:04 5,1 C 4,4 C 95 % 1028,9 hPa 0,0 l/m 0 min 0 min 72 W/m 25,1 km/h (4 Bft)
21.12.2014 10:06 5,1 C 4,4 C 95 % 1028,9 hPa 0,0 l/m 0 min 0 min 76 W/m 25,1 km/h (4 Bft)
21.12.2014 10:08 5,2 C 4,4 C 95 % 1029,0 hPa 0,0 l/m 0 min 0 min 76 W/m 29,3 km/h (5 Bft)
21.12.2014 10:10 5,2 C 4,4 C 96 % 1029,1 hPa 0,0 l/m 0 min 0 min 76 W/m 25,1 km/h (4 Bft)
21.12.2014 10:12 5,2 C 4,4 C 95 % 1029,1 hPa 0,0 l/m 0 min 0 min 71 W/m 27,2 km/h (4 Bft)
21.12.2014 10:14 5,2 C 4,4 C 95 % 1028,9 hPa 0,0 l/m 0 min 0 min 63 W/m 31,4 km/h (5 Bft)
21.12.2014 10:16 5,3 C 4,4 C 95 % 1028,9 hPa 0,0 l/m 0 min 0 min 56 W/m 27,2 km/h (4 Bft)
21.12.2014 10:18 5,3 C 4,4 C 95 % 1028,9 hPa 0,0 l/m 0 min 0 min 53 W/m 29,3 km/h (5 Bft)
21.12.2014 10:20 5,3 C 4,4 C 95 % 1029,0 hPa 0,0 l/m 0 min 0 min 52 W/m 23,0 km/h (4 Bft)
21.12.2014 10:22 5,3 C 4,4 C 95 % 1028,9 hPa 0,0 l/m 0 min 0 min 48 W/m 37,7 km/h (5 Bft)
21.12.2014 10:24 5,3 C 4,4 C 95 % 1028,8 hPa 0,0 l/m 0 min 0 min 49 W/m 27,2 km/h (4 Bft)
21.12.2014 10:26 5,4 C 4,4 C 95 % 1028,8 hPa 0,0 l/m 0 min 0 min 48 W/m 25,1 km/h (4 Bft)
21.12.2014 10:28 5,4 C 4,4 C 95 % 1028,9 hPa 0,0 l/m 0 min 0 min 46 W/m 20,9 km/h (4 Bft)
21.12.2014 10:30 5,4 C 4,4 C 95 % 1029,0 hPa 0,0 l/m 0 min 0 min 40 W/m 25,1 km/h (4 Bft)
21.12.2014 10:32 5,4 C 4,4 C 94 % 1029,0 hPa 0,0 l/m 0 min 0 min 39 W/m 25,1 km/h (4 Bft)
21.12.2014 10:34 5,4 C 4,4 C 94 % 1029,0 hPa 0,0 l/m 0 min 0 min 40 W/m 23,0 km/h (4 Bft)
21.12.2014 10:36 5,4 C 4,4 C 94 % 1029,0 hPa 0,0 l/m 0 min 0 min 40 W/m 29,3 km/h (5 Bft)
21.12.2014 10:38 5,5 C 4,4 C 94 % 1029,0 hPa 0,0 l/m 0 min 0 min 38 W/m 33,5 km/h (5 Bft)
21.12.2014 10:40 5,5 C 4,4 C 94 % 1029,0 hPa 0,0 l/m 0 min 0 min 39 W/m 27,2 km/h (4 Bft)
21.12.2014 10:42 5,5 C 4,4 C 94 % 1028,9 hPa 0,0 l/m 0 min 0 min 45 W/m 31,4 km/h (5 Bft)
21.12.2014 10:44 5,5 C 4,4 C 94 % 1028,9 hPa 0,0 l/m 0 min 0 min 52 W/m 25,1 km/h (4 Bft)
21.12.2014 10:46 5,6 C 5,0 C 94 % 1028,9 hPa 0,0 l/m 0 min 0 min 58 W/m 25,1 km/h (4 Bft)
21.12.2014 10:48 5,6 C 5,0 C 94 % 1028,9 hPa 0,0 l/m 0 min 0 min 60 W/m 31,4 km/h (5 Bft)
21.12.2014 10:50 5,6 C 5,0 C 93 % 1028,9 hPa 0,0 l/m 0 min 0 min 64 W/m 18,8 km/h (3 Bft)
21.12.2014 10:52 5,6 C 5,0 C 93 % 1029,0 hPa 0,0 l/m 0 min 0 min 65 W/m 12,6 km/h (3 Bft)
21.12.2014 10:54 5,6 C 5,0 C 93 % 1028,9 hPa 0,0 l/m 0 min 0 min 68 W/m 20,9 km/h (4 Bft)
21.12.2014 10:56 5,7 C 5,0 C 93 % 1028,9 hPa 0,0 l/m 0 min 0 min 63 W/m 23,0 km/h (4 Bft)
21.12.2014 10:58 5,7 C 5,0 C 93 % 1028,9 hPa 0,0 l/m 0 min 0 min 54 W/m 25,1 km/h (4 Bft)
21.12.2014 11:00 5,7 C 5,0 C 93 % 1028,9 hPa 0,0 l/m 0 min 0 min 51 W/m 20,9 km/h (4 Bft)
21.12.2014 11:02 5,7 C 5,0 C 93 % 1028,9 hPa 0,0 l/m 0 min 0 min 51 W/m 29,3 km/h (5 Bft)
21.12.2014 11:04 5,7 C 5,0 C 93 % 1028,8 hPa 0,0 l/m 0 min 0 min 55 W/m 23,0 km/h (4 Bft)
21.12.2014 11:06 5,8 C 5,0 C 93 % 1028,8 hPa 0,0 l/m 0 min 0 min 58 W/m 25,1 km/h (4 Bft)
21.12.2014 11:08 5,8 C 5,0 C 92 % 1028,7 hPa 0,0 l/m 0 min 0 min 58 W/m 25,1 km/h (4 Bft)
21.12.2014 11:10 5,8 C 5,0 C 92 % 1028,6 hPa 0,0 l/m 0 min 0 min 56 W/m 27,2 km/h (4 Bft)
21.12.2014 11:12 5,8 C 5,0 C 92 % 1028,5 hPa 0,0 l/m 0 min 0 min 54 W/m 23,0 km/h (4 Bft)
21.12.2014 11:14 5,8 C 5,0 C 92 % 1028,5 hPa 0,0 l/m 0 min 0 min 57 W/m 27,2 km/h (4 Bft)
21.12.2014 11:16 5,8 C 5,0 C 92 % 1028,4 hPa 0,0 l/m 0 min 0 min 62 W/m 25,1 km/h (4 Bft)
21.12.2014 11:18 5,8 C 5,0 C 92 % 1028,5 hPa 0,0 l/m 0 min 0 min 62 W/m 25,1 km/h (4 Bft)
21.12.2014 11:20 5,9 C 5,0 C 92 % 1028,3 hPa 0,0 l/m 0 min 0 min 70 W/m 25,1 km/h (4 Bft)
21.12.2014 11:22 5,9 C 5,0 C 92 % 1028,3 hPa 0,0 l/m 0 min 0 min 75 W/m 23,0 km/h (4 Bft)
21.12.2014 11:24 5,9 C 5,0 C 92 % 1028,3 hPa 0,0 l/m 0 min 0 min 67 W/m 18,8 km/h (3 Bft)
21.12.2014 11:26 5,9 C 5,0 C 92 % 1028,4 hPa 0,0 l/m 0 min 0 min 57 W/m 20,9 km/h (4 Bft)
21.12.2014 11:28 5,9 C 5,0 C 92 % 1028,3 hPa 0,0 l/m 0 min 0 min 51 W/m 25,1 km/h (4 Bft)
21.12.2014 11:30 5,9 C 5,0 C 91 % 1028,3 hPa 0,0 l/m 0 min 0 min 56 W/m 23,0 km/h (4 Bft)
21.12.2014 11:32 5,9 C 5,0 C 92 % 1028,2 hPa 0,0 l/m 0 min 0 min 70 W/m 35,6 km/h (5 Bft)
21.12.2014 11:34 6,0 C 5,0 C 92 % 1028,2 hPa 0,0 l/m 0 min 0 min 81 W/m 25,1 km/h (4 Bft)
21.12.2014 11:36 6,0 C 5,0 C 91 % 1028,0 hPa 0,0 l/m 0 min 0 min 84 W/m 25,1 km/h (4 Bft)
21.12.2014 11:38 6,0 C 5,0 C 91 % 1028,1 hPa 0,0 l/m 0 min 0 min 75 W/m 25,1 km/h (4 Bft)
21.12.2014 11:40 6,1 C 5,0 C 91 % 1028,1 hPa 0,0 l/m 0 min 0 min 59 W/m 29,3 km/h (5 Bft)
21.12.2014 11:42 6,1 C 5,0 C 91 % 1028,2 hPa 0,0 l/m 0 min 0 min 50 W/m 29,3 km/h (5 Bft)
21.12.2014 11:44 6,1 C 5,0 C 91 % 1028,2 hPa 0,0 l/m 0 min 0 min 51 W/m 20,9 km/h (4 Bft)
21.12.2014 11:46 6,1 C 5,0 C 91 % 1028,2 hPa 0,0 l/m 0 min 0 min 60 W/m 23,0 km/h (4 Bft)
21.12.2014 11:48 6,1 C 5,0 C 91 % 1028,1 hPa 0,0 l/m 0 min 0 min 72 W/m 25,1 km/h (4 Bft)
21.12.2014 11:50 6,2 C 5,6 C 91 % 1028,1 hPa 0,0 l/m 0 min 0 min 82 W/m 18,8 km/h (3 Bft)
21.12.2014 11:52 6,2 C 5,6 C 91 % 1028,2 hPa 0,0 l/m 0 min 0 min 86 W/m 29,3 km/h (5 Bft)
21.12.2014 11:54 6,2 C 5,6 C 91 % 1028,1 hPa 0,0 l/m 0 min 0 min 88 W/m 29,3 km/h (5 Bft)
21.12.2014 11:56 6,2 C 5,6 C 91 % 1028,1 hPa 0,0 l/m 0 min 0 min 90 W/m 25,1 km/h (4 Bft)
21.12.2014 11:58 6,3 C 5,6 C 91 % 1028,1 hPa 0,0 l/m 0 min 0 min 96 W/m 20,9 km/h (4 Bft)
21.12.2014 12:00 6,3 C 5,6 C 91 % 1028,0 hPa 0,0 l/m 0 min 0 min 102 W/m 25,1 km/h (4 Bft)
21.12.2014 12:02 6,3 C 5,6 C 91 % 1028,0 hPa 0,0 l/m 0 min 0 min 104 W/m 14,6 km/h (3 Bft)
21.12.2014 12:05 6,4 C 5,6 C 91 % 1027,8 hPa 0,0 l/m 0 min 0 min 109 W/m 25,1 km/h (4 Bft)
21.12.2014 12:06 6,4 C 5,6 C 91 % 1027,8 hPa 0,0 l/m 0 min 0 min 110 W/m 25,1 km/h (4 Bft)
21.12.2014 12:08 6,4 C 6,1 C 91 % 1027,8 hPa 0,0 l/m 0 min 0 min 116 W/m 16,7 km/h (3 Bft)
21.12.2014 12:10 6,4 C 6,1 C 91 % 1027,8 hPa 0,0 l/m 0 min 0 min 118 W/m 25,1 km/h (4 Bft)
21.12.2014 12:12 6,4 C 6,1 C 91 % 1027,8 hPa 0,0 l/m 0 min 0 min 99 W/m 27,2 km/h (4 Bft)
21.12.2014 12:14 6,5 C 5,6 C 91 % 1027,8 hPa 0,0 l/m 0 min 0 min 90 W/m 29,3 km/h (5 Bft)
21.12.2014 12:16 6,5 C 5,6 C 91 % 1027,9 hPa 0,0 l/m 0 min 0 min 65 W/m 27,2 km/h (4 Bft)
21.12.2014 12:18 6,6 C 5,6 C 91 % 1027,8 hPa 0,0 l/m 0 min 0 min 50 W/m 20,9 km/h (4 Bft)
21.12.2014 12:20 6,6 C 5,6 C 91 % 1027,8 hPa 0,0 l/m 0 min 0 min 41 W/m 23,0 km/h (4 Bft)
21.12.2014 12:22 6,6 C 5,6 C 91 % 1027,9 hPa 0,0 l/m 0 min 0 min 40 W/m 23,0 km/h (4 Bft)
21.12.2014 12:24 6,6 C 5,6 C 91 % 1027,6 hPa 0,0 l/m 0 min 0 min 48 W/m 16,7 km/h (3 Bft)
21.12.2014 12:26 6,6 C 5,6 C 91 % 1027,6 hPa 0,0 l/m 0 min 0 min 51 W/m 16,7 km/h (3 Bft)
21.12.2014 12:28 6,6 C 5,6 C 91 % 1027,7 hPa 0,0 l/m 0 min 0 min 41 W/m 27,2 km/h (4 Bft)
21.12.2014 12:30 6,6 C 5,6 C 91 % 1027,6 hPa 0,0 l/m 0 min 0 min 55 W/m 18,8 km/h (3 Bft)
21.12.2014 12:32 6,6 C 5,6 C 90 % 1027,6 hPa 0,0 l/m 0 min 0 min 62 W/m 23,0 km/h (4 Bft)
21.12.2014 12:34 6,6 C 5,6 C 90 % 1027,6 hPa 0,0 l/m 0 min 0 min 59 W/m 25,1 km/h (4 Bft)
21.12.2014 12:36 6,6 C 5,6 C 90 % 1027,6 hPa 0,0 l/m 0 min 0 min 52 W/m 20,9 km/h (4 Bft)
21.12.2014 12:38 6,6 C 5,6 C 90 % 1027,5 hPa 0,0 l/m 0 min 0 min 50 W/m 25,1 km/h (4 Bft)
21.12.2014 12:40 6,6 C 5,6 C 90 % 1027,4 hPa 0,0 l/m 0 min 0 min 44 W/m 20,9 km/h (4 Bft)
21.12.2014 12:42 6,7 C 5,6 C 90 % 1027,4 hPa 0,0 l/m 0 min 0 min 37 W/m 16,7 km/h (3 Bft)
21.12.2014 12:44 6,7 C 5,6 C 90 % 1027,4 hPa 0,0 l/m 0 min 0 min 33 W/m 27,2 km/h (4 Bft)
21.12.2014 12:46 6,7 C 5,6 C 90 % 1027,4 hPa 0,0 l/m 0 min 0 min 30 W/m 27,2 km/h (4 Bft)
21.12.2014 12:48 6,7 C 5,6 C 90 % 1027,5 hPa 0,0 l/m 0 min 0 min 31 W/m 23,0 km/h (4 Bft)
21.12.2014 12:50 6,7 C 5,6 C 90 % 1027,4 hPa 0,0 l/m 0 min 0 min 37 W/m 20,9 km/h (4 Bft)
21.12.2014 12:52 6,7 C 5,6 C 90 % 1027,4 hPa 0,0 l/m 0 min 0 min 43 W/m 14,6 km/h (3 Bft)
21.12.2014 12:54 6,7 C 5,6 C 90 % 1027,4 hPa 0,0 l/m 0 min 0 min 53 W/m 23,0 km/h (4 Bft)
21.12.2014 12:56 6,7 C 5,6 C 90 % 1027,3 hPa 0,0 l/m 0 min 0 min 68 W/m 16,7 km/h (3 Bft)
21.12.2014 12:58 6,7 C 5,6 C 90 % 1027,3 hPa 0,0 l/m 0 min 0 min 69 W/m 23,0 km/h (4 Bft)
21.12.2014 13:00 6,7 C 6,1 C 90 % 1027,4 hPa 0,0 l/m 0 min 0 min 69 W/m 20,9 km/h (4 Bft)
21.12.2014 13:02 6,7 C 5,6 C 90 % 1027,3 hPa 0,0 l/m 0 min 0 min 57 W/m 23,0 km/h (4 Bft)
21.12.2014 13:04 6,7 C 5,6 C 90 % 1027,2 hPa 0,0 l/m 0 min 0 min 43 W/m 23,0 km/h (4 Bft)
21.12.2014 13:06 6,8 C 5,6 C 90 % 1027,1 hPa 0,0 l/m 0 min 0 min 37 W/m 25,1 km/h (4 Bft)
21.12.2014 13:08 6,8 C 5,6 C 90 % 1027,2 hPa 0,0 l/m 0 min 0 min 44 W/m 29,3 km/h (5 Bft)
21.12.2014 13:10 6,8 C 5,6 C 90 % 1027,1 hPa 0,0 l/m 0 min 0 min 52 W/m 25,1 km/h (4 Bft)
21.12.2014 13:12 6,8 C 5,6 C 90 % 1027,0 hPa 0,0 l/m 0 min 0 min 51 W/m 25,1 km/h (4 Bft)
21.12.2014 13:14 6,8 C 5,6 C 90 % 1027,0 hPa 0,0 l/m 0 min 0 min 56 W/m 33,5 km/h (5 Bft)
21.12.2014 13:16 6,8 C 5,6 C 89 % 1027,1 hPa 0,0 l/m 0 min 0 min 44 W/m 18,8 km/h (3 Bft)
21.12.2014 13:18 6,8 C 5,6 C 89 % 1027,1 hPa 0,0 l/m 0 min 0 min 38 W/m 25,1 km/h (4 Bft)
21.12.2014 13:20 6,9 C 5,6 C 89 % 1027,0 hPa 0,0 l/m 0 min 0 min 37 W/m 16,7 km/h (3 Bft)
21.12.2014 13:22 6,9 C 5,6 C 89 % 1027,1 hPa 0,0 l/m 0 min 0 min 33 W/m 20,9 km/h (4 Bft)
21.12.2014 13:24 6,9 C 5,6 C 89 % 1027,1 hPa 0,0 l/m 0 min 0 min 33 W/m 25,1 km/h (4 Bft)
21.12.2014 13:26 6,9 C 5,6 C 89 % 1027,0 hPa 0,0 l/m 0 min 0 min 31 W/m 18,8 km/h (3 Bft)
21.12.2014 13:28 6,9 C 5,6 C 89 % 1027,0 hPa 0,0 l/m 0 min 0 min 37 W/m 23,0 km/h (4 Bft)
21.12.2014 13:30 6,9 C 5,6 C 89 % 1026,8 hPa 0,0 l/m 0 min 0 min 41 W/m 31,4 km/h (5 Bft)
21.12.2014 13:32 6,9 C 5,6 C 89 % 1026,9 hPa 0,0 l/m 0 min 0 min 43 W/m 23,0 km/h (4 Bft)
21.12.2014 13:34 6,9 C 5,6 C 89 % 1026,8 hPa 0,0 l/m 0 min 0 min 42 W/m 23,0 km/h (4 Bft)
21.12.2014 13:36 6,9 C 5,6 C 89 % 1026,7 hPa 0,0 l/m 0 min 0 min 41 W/m 29,3 km/h (5 Bft)
21.12.2014 13:38 6,9 C 5,6 C 89 % 1026,7 hPa 0,0 l/m 0 min 0 min 41 W/m 25,1 km/h (4 Bft)
21.12.2014 13:40 6,9 C 5,6 C 89 % 1026,8 hPa 0,0 l/m 0 min 0 min 35 W/m 20,9 km/h (4 Bft)
21.12.2014 13:42 6,9 C 5,6 C 89 % 1026,7 hPa 0,0 l/m 0 min 0 min 33 W/m 20,9 km/h (4 Bft)
21.12.2014 13:44 6,9 C 5,6 C 89 % 1026,7 hPa 0,0 l/m 0 min 0 min 30 W/m 25,1 km/h (4 Bft)
21.12.2014 13:46 6,9 C 5,6 C 89 % 1026,7 hPa 0,0 l/m 0 min 0 min 23 W/m 29,3 km/h (5 Bft)
21.12.2014 13:48 6,9 C 5,6 C 89 % 1026,7 hPa 0,0 l/m 0 min 0 min 26 W/m 25,1 km/h (4 Bft)
21.12.2014 13:50 6,9 C 5,6 C 89 % 1026,6 hPa 0,0 l/m 0 min 0 min 31 W/m 27,2 km/h (4 Bft)
21.12.2014 13:52 6,9 C 5,6 C 89 % 1026,5 hPa 0,0 l/m 0 min 0 min 30 W/m 27,2 km/h (4 Bft)
21.12.2014 13:54 6,9 C 5,6 C 89 % 1026,5 hPa 0,0 l/m 0 min 0 min 40 W/m 23,0 km/h (4 Bft)
21.12.2014 13:56 6,9 C 5,6 C 89 % 1026,5 hPa 0,0 l/m 0 min 0 min 52 W/m 25,1 km/h (4 Bft)
21.12.2014 13:58 7,0 C 5,6 C 89 % 1026,6 hPa 0,0 l/m 0 min 0 min 46 W/m 29,3 km/h (5 Bft)
21.12.2014 14:00 7,0 C 6,1 C 89 % 1026,6 hPa 0,0 l/m 0 min 0 min 47 W/m 23,0 km/h (4 Bft)
21.12.2014 14:02 7,0 C 6,1 C 89 % 1026,7 hPa 0,0 l/m 0 min 0 min 42 W/m 33,5 km/h (5 Bft)
21.12.2014 14:04 7,0 C 6,1 C 89 % 1026,7 hPa 0,0 l/m 0 min 0 min 28 W/m 29,3 km/h (5 Bft)
21.12.2014 14:06 7,1 C 6,1 C 89 % 1026,7 hPa 0,0 l/m 0 min 0 min 19 W/m 33,5 km/h (5 Bft)
21.12.2014 14:08 7,1 C 6,1 C 89 % 1026,6 hPa 0,0 l/m 0 min 0 min 23 W/m 16,7 km/h (3 Bft)
21.12.2014 14:10 7,1 C 6,1 C 89 % 1026,5 hPa 0,0 l/m 0 min 0 min 25 W/m 33,5 km/h (5 Bft)
21.12.2014 14:12 7,1 C 6,1 C 89 % 1026,5 hPa 0,0 l/m 0 min 0 min 26 W/m 18,8 km/h (3 Bft)
21.12.2014 14:14 7,1 C 6,1 C 89 % 1026,4 hPa 0,0 l/m 0 min 0 min 26 W/m 23,0 km/h (4 Bft)
21.12.2014 14:16 7,1 C 6,1 C 89 % 1026,3 hPa 0,0 l/m 0 min 0 min 37 W/m 25,1 km/h (4 Bft)
21.12.2014 14:18 7,1 C 6,1 C 89 % 1026,3 hPa 0,0 l/m 0 min 0 min 48 W/m 27,2 km/h (4 Bft)
21.12.2014 14:20 7,1 C 6,1 C 89 % 1026,3 hPa 0,0 l/m 0 min 0 min 40 W/m 23,0 km/h (4 Bft)
21.12.2014 14:22 7,1 C 6,1 C 89 % 1026,3 hPa 0,0 l/m 0 min 0 min 27 W/m 23,0 km/h (4 Bft)
21.12.2014 14:24 7,2 C 6,1 C 89 % 1026,2 hPa 0,0 l/m 0 min 0 min 24 W/m 27,2 km/h (4 Bft)
21.12.2014 14:26 7,2 C 6,1 C 89 % 1026,3 hPa 0,0 l/m 0 min 0 min 18 W/m 27,2 km/h (4 Bft)
21.12.2014 14:28 7,2 C 6,1 C 89 % 1026,2 hPa 0,0 l/m 0 min 0 min 26 W/m 18,8 km/h (3 Bft)
21.12.2014 14:30 7,2 C 6,1 C 89 % 1026,2 hPa 0,0 l/m 0 min 0 min 31 W/m 23,0 km/h (4 Bft)
21.12.2014 14:32 7,2 C 6,1 C 89 % 1026,1 hPa 0,0 l/m 0 min 0 min 28 W/m 20,9 km/h (4 Bft)
21.12.2014 14:34 7,2 C 6,1 C 89 % 1026,1 hPa 0,0 l/m 0 min 0 min 25 W/m 27,2 km/h (4 Bft)
21.12.2014 14:36 7,2 C 6,1 C 89 % 1026,1 hPa 0,0 l/m 0 min 0 min 25 W/m 25,1 km/h (4 Bft)
21.12.2014 14:38 7,2 C 6,1 C 89 % 1026,1 hPa 0,0 l/m 0 min 0 min 22 W/m 25,1 km/h (4 Bft)
21.12.2014 14:40 7,3 C 6,1 C 89 % 1026,1 hPa 0,0 l/m 0 min 2 min 20 W/m 27,2 km/h (4 Bft)
21.12.2014 14:42 7,3 C 6,1 C 89 % 1026,0 hPa 0,0 l/m 0 min 0 min 21 W/m 31,4 km/h (5 Bft)
21.12.2014 14:44 7,3 C 5,6 C 89 % 1026,0 hPa 0,0 l/m 0 min 0 min 29 W/m 29,3 km/h (5 Bft)
21.12.2014 14:46 7,3 C 5,6 C 90 % 1025,7 hPa 0,0 l/m 0 min 0 min 43 W/m 33,5 km/h (5 Bft)
21.12.2014 14:48 7,3 C 5,6 C 90 % 1025,7 hPa 0,0 l/m 0 min 0 min 32 W/m 29,3 km/h (5 Bft)
21.12.2014 14:50 7,3 C 5,6 C 90 % 1025,7 hPa 0,0 l/m 0 min 0 min 27 W/m 20,9 km/h (4 Bft)
21.12.2014 14:52 7,3 C 5,6 C 90 % 1025,7 hPa 0,0 l/m 0 min 0 min 20 W/m 23,0 km/h (4 Bft)
21.12.2014 14:54 7,3 C 5,6 C 90 % 1025,7 hPa 0,0 l/m 0 min 0 min 19 W/m 23,0 km/h (4 Bft)
21.12.2014 14:56 7,3 C 5,6 C 90 % 1025,7 hPa 0,0 l/m 0 min 0 min 17 W/m 29,3 km/h (5 Bft)
21.12.2014 14:58 7,3 C 5,6 C 90 % 1025,7 hPa 0,0 l/m 0 min 0 min 17 W/m 27,2 km/h (4 Bft)
21.12.2014 15:00 7,3 C 5,6 C 91 % 1025,7 hPa 0,0 l/m 0 min 0 min 19 W/m 23,0 km/h (4 Bft)
21.12.2014 15:02 7,3 C 5,6 C 90 % 1025,7 hPa 0,0 l/m 0 min 2 min 19 W/m 20,9 km/h (4 Bft)
21.12.2014 15:04 7,3 C 5,6 C 91 % 1025,7 hPa 0,0 l/m 0 min 0 min 19 W/m 20,9 km/h (4 Bft)
21.12.2014 15:06 7,3 C 5,6 C 91 % 1025,7 hPa 0,0 l/m 0 min 0 min 19 W/m 29,3 km/h (5 Bft)
21.12.2014 15:08 7,3 C 5,6 C 91 % 1025,7 hPa 0,0 l/m 0 min 0 min 24 W/m 18,8 km/h (3 Bft)
21.12.2014 15:10 7,2 C 5,6 C 91 % 1025,7 hPa 0,0 l/m 0 min 0 min 22 W/m 23,0 km/h (4 Bft)
21.12.2014 15:12 7,2 C 5,6 C 91 % 1025,7 hPa 0,0 l/m 0 min 0 min 23 W/m 33,5 km/h (5 Bft)
21.12.2014 15:14 7,2 C 5,6 C 91 % 1025,7 hPa 0,0 l/m 0 min 0 min 25 W/m 29,3 km/h (5 Bft)
21.12.2014 15:16 7,2 C 5,6 C 91 % 1025,6 hPa 0,0 l/m 0 min 0 min 29 W/m 29,3 km/h (5 Bft)
21.12.2014 15:18 7,2 C 5,6 C 92 % 1025,6 hPa 0,0 l/m 0 min 0 min 28 W/m 16,7 km/h (3 Bft)
21.12.2014 15:20 7,2 C 5,6 C 92 % 1025,5 hPa 0,0 l/m 0 min 0 min 22 W/m 23,0 km/h (4 Bft)
21.12.2014 15:22 7,2 C 5,6 C 92 % 1025,5 hPa 0,0 l/m 0 min 0 min 19 W/m 39,7 km/h (6 Bft)
21.12.2014 15:24 7,2 C 5,6 C 92 % 1025,5 hPa 0,0 l/m 0 min 0 min 19 W/m 35,6 km/h (5 Bft)
21.12.2014 15:26 7,2 C 5,6 C 92 % 1025,4 hPa 0,0 l/m 0 min 0 min 18 W/m 16,7 km/h (3 Bft)
21.12.2014 15:28 7,2 C 5,6 C 92 % 1025,4 hPa 0,0 l/m 0 min 0 min 14 W/m 16,7 km/h (3 Bft)
21.12.2014 15:30 7,2 C 5,6 C 92 % 1025,5 hPa 0,0 l/m 0 min 0 min 14 W/m 23,0 km/h (4 Bft)
21.12.2014 15:32 7,2 C 5,6 C 92 % 1025,4 hPa 0,0 l/m 0 min 0 min 14 W/m 23,0 km/h (4 Bft)
21.12.2014 15:34 7,2 C 5,6 C 92 % 1025,3 hPa 0,0 l/m 0 min 0 min 14 W/m 27,2 km/h (4 Bft)
21.12.2014 15:36 7,1 C 5,6 C 93 % 1025,3 hPa 0,0 l/m 0 min 0 min 11 W/m 25,1 km/h (4 Bft)
21.12.2014 15:38 7,1 C 5,6 C 93 % 1025,2 hPa 0,0 l/m 0 min 0 min 8 W/m 27,2 km/h (4 Bft)
21.12.2014 15:40 7,1 C 5,6 C 93 % 1025,2 hPa 0,0 l/m 0 min 0 min 7 W/m 20,9 km/h (4 Bft)
21.12.2014 15:42 7,1 C 5,6 C 93 % 1025,2 hPa 0,0 l/m 0 min 2 min 7 W/m 25,1 km/h (4 Bft)
21.12.2014 15:44 7,1 C 5,6 C 93 % 1025,2 hPa 0,0 l/m 0 min 2 min 7 W/m 23,0 km/h (4 Bft)
21.12.2014 15:46 7,1 C 5,6 C 93 % 1025,1 hPa 0,0 l/m 0 min 0 min 7 W/m 16,7 km/h (3 Bft)
21.12.2014 15:48 7,1 C 5,6 C 93 % 1025,1 hPa 0,0 l/m 0 min 0 min 5 W/m 20,9 km/h (4 Bft)
21.12.2014 15:50 7,1 C 5,6 C 93 % 1025,1 hPa 0,0 l/m 0 min 0 min 6 W/m 25,1 km/h (4 Bft)
21.12.2014 15:52 7,1 C 5,6 C 93 % 1025,1 hPa 0,0 l/m 0 min 2 min 7 W/m 16,7 km/h (3 Bft)
21.12.2014 15:54 7,1 C 5,6 C 93 % 1025,1 hPa 0,0 l/m 0 min 0 min 5 W/m 31,4 km/h (5 Bft)
21.12.2014 15:56 7,0 C 5,6 C 93 % 1025,1 hPa 0,0 l/m 0 min 0 min 6 W/m 29,3 km/h (5 Bft)
21.12.2014 15:58 7,0 C 5,6 C 93 % 1025,0 hPa 0,0 l/m 0 min 0 min 5 W/m 31,4 km/h (5 Bft)
21.12.2014 16:00 7,0 C 5,6 C 94 % 1025,0 hPa 0,0 l/m 0 min 0 min 3 W/m 16,7 km/h (3 Bft)
21.12.2014 16:02 7,0 C 5,6 C 94 % 1025,0 hPa 0,0 l/m 0 min 0 min 5 W/m 18,8 km/h (3 Bft)
21.12.2014 16:04 7,0 C 5,6 C 94 % 1025,0 hPa 0,0 l/m 0 min 0 min 3 W/m 25,1 km/h (4 Bft)
21.12.2014 16:06 7,0 C 5,6 C 94 % 1025,0 hPa 0,0 l/m 0 min 0 min 4 W/m 27,2 km/h (4 Bft)
21.12.2014 16:08 7,1 C 5,6 C 94 % 1025,0 hPa 0,0 l/m 0 min 0 min 0 W/m 23,0 km/h (4 Bft)
21.12.2014 16:10 7,1 C 5,6 C 94 % 1025,0 hPa 0,0 l/m 0 min 0 min 0 W/m 37,7 km/h (5 Bft)
21.12.2014 16:12 7,0 C 5,6 C 94 % 1025,0 hPa 0,0 l/m 0 min 0 min 0 W/m 27,2 km/h (4 Bft)
21.12.2014 16:14 7,1 C 5,6 C 94 % 1024,9 hPa 0,0 l/m 0 min 0 min 0 W/m 27,2 km/h (4 Bft)
21.12.2014 16:16 7,1 C 5,6 C 94 % 1025,0 hPa 0,0 l/m 0 min 0 min 0 W/m 37,7 km/h (5 Bft)
21.12.2014 16:18 7,1 C 5,6 C 94 % 1024,9 hPa 0,0 l/m 0 min 0 min 0 W/m 18,8 km/h (3 Bft)
21.12.2014 16:20 7,1 C 5,6 C 94 % 1024,9 hPa 0,0 l/m 0 min 0 min 0 W/m 25,1 km/h (4 Bft)
21.12.2014 16:22 7,1 C 5,6 C 94 % 1024,9 hPa 0,0 l/m 0 min 0 min 0 W/m 31,4 km/h (5 Bft)
21.12.2014 16:24 7,1 C 5,6 C 94 % 1024,9 hPa 0,0 l/m 0 min 0 min 0 W/m 35,6 km/h (5 Bft)
21.12.2014 16:26 7,1 C 5,6 C 94 % 1024,9 hPa 0,0 l/m 0 min 0 min 0 W/m 27,2 km/h (4 Bft)
21.12.2014 16:28 7,1 C 5,6 C 94 % 1024,9 hPa 0,0 l/m 0 min 0 min 0 W/m 33,5 km/h (5 Bft)
21.12.2014 16:30 7,1 C 5,6 C 94 % 1025,0 hPa 0,0 l/m 0 min 0 min 0 W/m 35,6 km/h (5 Bft)
21.12.2014 16:32 7,1 C 5,6 C 94 % 1025,0 hPa 0,0 l/m 0 min 0 min 0 W/m 29,3 km/h (5 Bft)
21.12.2014 16:34 7,1 C 5,6 C 94 % 1025,0 hPa 0,0 l/m 0 min 0 min 0 W/m 27,2 km/h (4 Bft)
21.12.2014 16:36 7,2 C 5,6 C 94 % 1025,0 hPa 0,0 l/m 0 min 0 min 0 W/m 27,2 km/h (4 Bft)
21.12.2014 16:38 7,2 C 5,6 C 94 % 1024,9 hPa 0,0 l/m 0 min 0 min 0 W/m 29,3 km/h (5 Bft)
21.12.2014 16:40 7,2 C 5,6 C 94 % 1024,9 hPa 0,0 l/m 0 min 0 min 0 W/m 43,9 km/h (6 Bft)
21.12.2014 16:42 7,2 C 5,6 C 94 % 1024,8 hPa 0,0 l/m 0 min 0 min 0 W/m 31,4 km/h (5 Bft)
21.12.2014 16:44 7,2 C 5,6 C 94 % 1024,8 hPa 0,0 l/m 0 min 0 min 0 W/m 35,6 km/h (5 Bft)
21.12.2014 16:46 7,2 C 5,6 C 94 % 1024,8 hPa 0,0 l/m 0 min 0 min 0 W/m 39,7 km/h (6 Bft)
21.12.2014 16:48 7,2 C 5,6 C 94 % 1024,8 hPa 0,0 l/m 0 min 2 min 0 W/m 39,7 km/h (6 Bft)
21.12.2014 16:50 7,2 C 5,6 C 94 % 1024,7 hPa 0,0 l/m 0 min 2 min 0 W/m 25,1 km/h (4 Bft)
21.12.2014 16:52 7,2 C 5,6 C 94 % 1024,6 hPa 0,0 l/m 0 min 0 min 0 W/m 31,4 km/h (5 Bft)
21.12.2014 16:54 7,2 C 5,6 C 94 % 1024,6 hPa 0,0 l/m 0 min 0 min 0 W/m 31,4 km/h (5 Bft)
21.12.2014 16:56 7,2 C 5,6 C 94 % 1024,5 hPa 0,0 l/m 0 min 0 min 0 W/m 29,3 km/h (5 Bft)
21.12.2014 16:58 7,2 C 5,6 C 94 % 1024,5 hPa 0,0 l/m 0 min 0 min 0 W/m 33,5 km/h (5 Bft)
21.12.2014 17:00 7,2 C 5,6 C 94 % 1024,7 hPa 0,0 l/m 0 min 0 min 0 W/m 27,2 km/h (4 Bft)
21.12.2014 17:02 7,2 C 5,6 C 94 % 1024,7 hPa 0,0 l/m 0 min 0 min 0 W/m 33,5 km/h (5 Bft)
21.12.2014 17:04 7,3 C 5,6 C 94 % 1024,7 hPa 0,0 l/m 0 min 0 min 0 W/m 25,1 km/h (4 Bft)
21.12.2014 17:06 7,3 C 5,6 C 94 % 1024,6 hPa 0,2 l/m 0 min 0 min 0 W/m 29,3 km/h (5 Bft)
21.12.2014 17:08 7,3 C 5,6 C 94 % 1024,7 hPa 0,0 l/m 0 min 0 min 0 W/m 37,7 km/h (5 Bft)
21.12.2014 17:10 7,3 C 5,6 C 94 % 1024,7 hPa 0,0 l/m 0 min 0 min 0 W/m 29,3 km/h (5 Bft)
21.12.2014 17:12 7,3 C 5,6 C 94 % 1024,6 hPa 0,0 l/m 0 min 0 min 0 W/m 27,2 km/h (4 Bft)
21.12.2014 17:14 7,3 C 5,6 C 94 % 1024,5 hPa 0,0 l/m 0 min 0 min 0 W/m 33,5 km/h (5 Bft)
21.12.2014 17:16 7,3 C 5,6 C 94 % 1024,5 hPa 0,0 l/m 0 min 0 min 0 W/m 41,8 km/h (6 Bft)
21.12.2014 17:18 7,2 C 5,6 C 94 % 1024,6 hPa 0,0 l/m 0 min 0 min 0 W/m 31,4 km/h (5 Bft)
21.12.2014 17:20 7,2 C 5,6 C 94 % 1024,6 hPa 0,0 l/m 0 min 0 min 0 W/m 27,2 km/h (4 Bft)
21.12.2014 17:22 7,2 C 5,6 C 94 % 1024,6 hPa 0,0 l/m 0 min 0 min 0 W/m 31,4 km/h (5 Bft)
21.12.2014 17:24 7,2 C 5,6 C 95 % 1024,6 hPa 0,0 l/m 0 min 0 min 0 W/m 25,1 km/h (4 Bft)
21.12.2014 17:26 7,2 C 5,6 C 95 % 1024,4 hPa 0,0 l/m 0 min 0 min 0 W/m 35,6 km/h (5 Bft)
21.12.2014 17:28 7,2 C 5,6 C 95 % 1024,4 hPa 0,0 l/m 0 min 0 min 0 W/m 31,4 km/h (5 Bft)
21.12.2014 17:30 7,2 C 5,6 C 95 % 1024,4 hPa 0,0 l/m 0 min 0 min 0 W/m 29,3 km/h (5 Bft)
21.12.2014 17:32 7,2 C 5,6 C 95 % 1024,4 hPa 0,0 l/m 0 min 0 min 0 W/m 25,1 km/h (4 Bft)
21.12.2014 17:34 7,2 C 5,6 C 95 % 1024,5 hPa 0,0 l/m 0 min 0 min 0 W/m 27,2 km/h (4 Bft)
21.12.2014 17:36 7,2 C 5,6 C 95 % 1024,5 hPa 0,0 l/m 0 min 2 min 0 W/m 25,1 km/h (4 Bft)
21.12.2014 17:38 7,2 C 5,6 C 95 % 1024,5 hPa 0,0 l/m 0 min 2 min 0 W/m 29,3 km/h (5 Bft)
21.12.2014 17:40 7,2 C 5,6 C 95 % 1024,5 hPa 0,0 l/m 0 min 2 min 0 W/m 23,0 km/h (4 Bft)
21.12.2014 17:42 7,2 C 5,6 C 95 % 1024,4 hPa 0,0 l/m 0 min 2 min 0 W/m 25,1 km/h (4 Bft)
21.12.2014 17:44 7,2 C 5,6 C 95 % 1024,3 hPa 0,0 l/m 0 min 2 min 0 W/m 31,4 km/h (5 Bft)
21.12.2014 17:46 7,2 C 5,6 C 95 % 1024,4 hPa 0,2 l/m 0 min 2 min 0 W/m 35,6 km/h (5 Bft)
21.12.2014 17:48 7,2 C 5,6 C 95 % 1024,3 hPa 0,0 l/m 0 min 0 min 0 W/m 29,3 km/h (5 Bft)
21.12.2014 17:50 7,2 C 5,6 C 95 % 1024,4 hPa 0,0 l/m 0 min 0 min 0 W/m 23,0 km/h (4 Bft)
21.12.2014 17:52 7,2 C 5,6 C 95 % 1024,5 hPa 0,0 l/m 0 min 0 min 0 W/m 27,2 km/h (4 Bft)
21.12.2014 17:54 7,2 C 5,6 C 95 % 1024,5 hPa 0,0 l/m 0 min 0 min 0 W/m 25,1 km/h (4 Bft)
21.12.2014 17:56 7,2 C 5,6 C 95 % 1024,5 hPa 0,0 l/m 0 min 0 min 0 W/m 25,1 km/h (4 Bft)
21.12.2014 17:58 7,2 C 5,6 C 95 % 1024,5 hPa 0,0 l/m 0 min 0 min 0 W/m 27,2 km/h (4 Bft)
21.12.2014 18:00 7,1 C 5,6 C 95 % 1024,5 hPa 0,0 l/m 0 min 0 min 0 W/m 31,4 km/h (5 Bft)
21.12.2014 18:02 7,1 C 5,6 C 96 % 1024,4 hPa 0,0 l/m 0 min 0 min 0 W/m 23,0 km/h (4 Bft)
21.12.2014 18:06 7,2 C 5,6 C 96 % 1024,4 hPa 0,0 l/m 0 min 0 min 0 W/m 29,3 km/h (5 Bft)
21.12.2014 18:08 7,1 C 5,6 C 96 % 1024,4 hPa 0,0 l/m 0 min 2 min 0 W/m 39,7 km/h (6 Bft)
21.12.2014 18:10 7,1 C 5,6 C 96 % 1024,4 hPa 0,0 l/m 0 min 0 min 0 W/m 35,6 km/h (5 Bft)
21.12.2014 18:12 7,2 C 5,6 C 96 % 1024,4 hPa 0,0 l/m 0 min 0 min 0 W/m 25,1 km/h (4 Bft)
21.12.2014 18:14 7,2 C 5,6 C 96 % 1024,4 hPa 0,0 l/m 0 min 0 min 0 W/m 31,4 km/h (5 Bft)
21.12.2014 18:16 7,2 C 5,6 C 96 % 1024,4 hPa 0,0 l/m 0 min 0 min 0 W/m 33,5 km/h (5 Bft)
21.12.2014 18:18 7,2 C 5,6 C 96 % 1024,4 hPa 0,0 l/m 0 min 0 min 0 W/m 23,0 km/h (4 Bft)
21.12.2014 18:20 7,2 C 5,6 C 96 % 1024,5 hPa 0,0 l/m 0 min 0 min 0 W/m 31,4 km/h (5 Bft)
21.12.2014 18:22 7,2 C 5,6 C 96 % 1024,4 hPa 0,0 l/m 0 min 0 min 0 W/m 29,3 km/h (5 Bft)
21.12.2014 18:24 7,1 C 5,6 C 96 % 1024,4 hPa 0,0 l/m 0 min 0 min 0 W/m 23,0 km/h (4 Bft)
21.12.2014 18:26 7,1 C 5,6 C 96 % 1024,4 hPa 0,0 l/m 0 min 0 min 0 W/m 25,1 km/h (4 Bft)
21.12.2014 18:28 7,2 C 5,6 C 96 % 1024,6 hPa 0,0 l/m 0 min 0 min 0 W/m 25,1 km/h (4 Bft)
21.12.2014 18:30 7,1 C 5,6 C 96 % 1024,5 hPa 0,0 l/m 0 min 0 min 0 W/m 25,1 km/h (4 Bft)
21.12.2014 18:32 7,2 C 5,6 C 96 % 1024,4 hPa 0,0 l/m 0 min 2 min 0 W/m 33,5 km/h (5 Bft)
21.12.2014 18:34 7,2 C 5,6 C 96 % 1024,4 hPa 0,0 l/m 0 min 0 min 0 W/m 23,0 km/h (4 Bft)
21.12.2014 18:36 7,2 C 5,6 C 96 % 1024,4 hPa 0,0 l/m 0 min 0 min 0 W/m 29,3 km/h (5 Bft)
21.12.2014 18:38 7,2 C 5,6 C 96 % 1024,4 hPa 0,0 l/m 0 min 0 min 0 W/m 29,3 km/h (5 Bft)
21.12.2014 18:40 7,2 C 5,6 C 96 % 1024,4 hPa 0,0 l/m 0 min 0 min 0 W/m 33,5 km/h (5 Bft)
21.12.2014 18:42 7,2 C 5,6 C 96 % 1024,5 hPa 0,0 l/m 0 min 0 min 0 W/m 23,0 km/h (4 Bft)
21.12.2014 18:44 7,2 C 5,6 C 96 % 1024,5 hPa 0,0 l/m 0 min 2 min 0 W/m 46,0 km/h (6 Bft)
21.12.2014 18:46 7,2 C 5,6 C 96 % 1024,5 hPa 0,0 l/m 0 min 2 min 0 W/m 27,2 km/h (4 Bft)
21.12.2014 18:48 7,2 C 5,6 C 96 % 1024,5 hPa 0,0 l/m 0 min 2 min 0 W/m 27,2 km/h (4 Bft)
21.12.2014 18:50 7,2 C 5,6 C 96 % 1024,4 hPa 0,0 l/m 0 min 2 min 0 W/m 27,2 km/h (4 Bft)
21.12.2014 18:52 7,2 C 5,6 C 96 % 1024,4 hPa 0,0 l/m 0 min 2 min 0 W/m 48,1 km/h (6 Bft)
21.12.2014 18:54 7,2 C 5,6 C 96 % 1024,3 hPa 0,0 l/m 0 min 2 min 0 W/m 33,5 km/h (5 Bft)
21.12.2014 18:56 7,2 C 5,6 C 97 % 1024,3 hPa 0,2 l/m 0 min 2 min 0 W/m 41,8 km/h (6 Bft)
21.12.2014 18:58 7,2 C 5,6 C 97 % 1024,3 hPa 0,0 l/m 0 min 2 min 0 W/m 31,4 km/h (5 Bft)
21.12.2014 19:00 7,2 C 5,6 C 97 % 1024,2 hPa 0,0 l/m 0 min 0 min 0 W/m 29,3 km/h (5 Bft)
21.12.2014 19:02 7,3 C 6,1 C 97 % 1024,2 hPa 0,0 l/m 0 min 2 min 0 W/m 29,3 km/h (5 Bft)
21.12.2014 19:04 7,3 C 6,1 C 97 % 1024,3 hPa 0,0 l/m 0 min 2 min 0 W/m 31,4 km/h (5 Bft)
21.12.2014 19:06 7,3 C 6,1 C 97 % 1024,1 hPa 0,0 l/m 0 min 2 min 0 W/m 33,5 km/h (5 Bft)
21.12.2014 19:08 7,3 C 6,1 C 97 % 1024,2 hPa 0,0 l/m 0 min 0 min 0 W/m 37,7 km/h (5 Bft)
21.12.2014 19:10 7,3 C 6,1 C 97 % 1024,2 hPa 0,0 l/m 0 min 0 min 0 W/m 27,2 km/h (4 Bft)
21.12.2014 19:12 7,3 C 6,1 C 97 % 1024,3 hPa 0,0 l/m 0 min 0 min 0 W/m 27,2 km/h (4 Bft)
21.12.2014 19:14 7,3 C 6,1 C 97 % 1024,3 hPa 0,0 l/m 0 min 0 min 0 W/m 35,6 km/h (5 Bft)
21.12.2014 19:16 7,3 C 6,1 C 97 % 1024,3 hPa 0,0 l/m 0 min 0 min 0 W/m 31,4 km/h (5 Bft)
21.12.2014 19:18 7,3 C 6,1 C 97 % 1024,2 hPa 0,0 l/m 0 min 0 min 0 W/m 35,6 km/h (5 Bft)
21.12.2014 19:20 7,3 C 6,1 C 97 % 1024,4 hPa 0,0 l/m 0 min 0 min 0 W/m 33,5 km/h (5 Bft)
21.12.2014 19:22 7,3 C 6,1 C 97 % 1024,2 hPa 0,0 l/m 0 min 0 min 0 W/m 37,7 km/h (5 Bft)
21.12.2014 19:24 7,3 C 6,1 C 97 % 1024,2 hPa 0,0 l/m 0 min 0 min 0 W/m 35,6 km/h (5 Bft)
21.12.2014 19:26 7,3 C 6,1 C 97 % 1024,2 hPa 0,0 l/m 0 min 0 min 0 W/m 31,4 km/h (5 Bft)
21.12.2014 19:28 7,3 C 6,1 C 97 % 1024,1 hPa 0,0 l/m 0 min 0 min 0 W/m 37,7 km/h (5 Bft)
21.12.2014 19:30 7,3 C 6,1 C 97 % 1024,2 hPa 0,0 l/m 0 min 0 min 0 W/m 48,1 km/h (6 Bft)
21.12.2014 19:32 7,3 C 6,1 C 97 % 1024,1 hPa 0,0 l/m 0 min 0 min 0 W/m 37,7 km/h (5 Bft)
21.12.2014 19:34 7,3 C 6,1 C 97 % 1024,1 hPa 0,0 l/m 0 min 0 min 0 W/m 39,7 km/h (6 Bft)
21.12.2014 19:36 7,3 C 6,1 C 97 % 1024,0 hPa 0,0 l/m 0 min 0 min 0 W/m 31,4 km/h (5 Bft)
21.12.2014 19:38 7,3 C 6,1 C 97 % 1024,0 hPa 0,0 l/m 0 min 0 min 0 W/m 39,7 km/h (6 Bft)
21.12.2014 19:40 7,3 C 6,1 C 97 % 1024,0 hPa 0,0 l/m 0 min 0 min 0 W/m 39,7 km/h (6 Bft)
21.12.2014 19:42 7,3 C 6,1 C 97 % 1024,0 hPa 0,0 l/m 0 min 0 min 0 W/m 39,7 km/h (6 Bft)
21.12.2014 19:44 7,3 C 6,1 C 97 % 1024,0 hPa 0,0 l/m 0 min 0 min 0 W/m 27,2 km/h (4 Bft)
21.12.2014 19:46 7,3 C 6,1 C 97 % 1023,9 hPa 0,0 l/m 0 min 0 min 0 W/m 31,4 km/h (5 Bft)
21.12.2014 19:48 7,3 C 6,1 C 97 % 1023,9 hPa 0,0 l/m 0 min 0 min 0 W/m 31,4 km/h (5 Bft)
21.12.2014 19:50 7,3 C 6,1 C 97 % 1024,0 hPa 0,0 l/m 0 min 0 min 0 W/m 35,6 km/h (5 Bft)
21.12.2014 19:52 7,3 C 6,1 C 97 % 1024,1 hPa 0,0 l/m 0 min 0 min 0 W/m 35,6 km/h (5 Bft)
21.12.2014 19:54 7,3 C 6,1 C 97 % 1024,1 hPa 0,0 l/m 0 min 0 min 0 W/m 33,5 km/h (5 Bft)
21.12.2014 19:56 7,3 C 6,1 C 97 % 1024,0 hPa 0,0 l/m 0 min 2 min 0 W/m 35,6 km/h (5 Bft)
21.12.2014 19:58 7,3 C 6,1 C 97 % 1023,9 hPa 0,0 l/m 0 min 2 min 0 W/m 35,6 km/h (5 Bft)
21.12.2014 20:00 7,3 C 6,1 C 97 % 1023,8 hPa 0,0 l/m 0 min 2 min 0 W/m 29,3 km/h (5 Bft)
21.12.2014 20:02 7,3 C 6,1 C 97 % 1023,8 hPa 0,2 l/m 0 min 2 min 0 W/m 41,8 km/h (6 Bft)
21.12.2014 20:04 7,3 C 6,1 C 97 % 1023,8 hPa 0,0 l/m 0 min 2 min 0 W/m 31,4 km/h (5 Bft)
21.12.2014 20:06 7,3 C 6,1 C 97 % 1023,8 hPa 0,0 l/m 0 min 2 min 0 W/m 41,8 km/h (6 Bft)
21.12.2014 20:08 7,3 C 6,1 C 97 % 1023,9 hPa 0,0 l/m 0 min 0 min 0 W/m 37,7 km/h (5 Bft)
21.12.2014 20:10 7,3 C 6,1 C 97 % 1023,9 hPa 0,0 l/m 0 min 0 min 0 W/m 43,9 km/h (6 Bft)
21.12.2014 20:12 7,3 C 6,1 C 97 % 1023,7 hPa 0,0 l/m 0 min 0 min 0 W/m 37,7 km/h (5 Bft)
21.12.2014 20:14 7,3 C 6,1 C 97 % 1023,7 hPa 0,0 l/m 0 min 0 min 0 W/m 35,6 km/h (5 Bft)
21.12.2014 20:16 7,3 C 6,1 C 97 % 1023,6 hPa 0,0 l/m 0 min 0 min 0 W/m 35,6 km/h (5 Bft)
21.12.2014 20:18 7,3 C 6,1 C 97 % 1023,6 hPa 0,0 l/m 0 min 0 min 0 W/m 41,8 km/h (6 Bft)
21.12.2014 20:20 7,4 C 6,1 C 97 % 1023,6 hPa 0,0 l/m 0 min 0 min 0 W/m 25,1 km/h (4 Bft)
21.12.2014 20:22 7,3 C 6,1 C 97 % 1023,5 hPa 0,0 l/m 0 min 0 min 0 W/m 37,7 km/h (5 Bft)
21.12.2014 20:24 7,4 C 6,1 C 97 % 1023,5 hPa 0,0 l/m 0 min 0 min 0 W/m 48,1 km/h (6 Bft)
21.12.2014 20:26 7,4 C 6,1 C 97 % 1023,6 hPa 0,0 l/m 0 min 0 min 0 W/m 35,6 km/h (5 Bft)
21.12.2014 20:28 7,4 C 6,1 C 97 % 1023,5 hPa 0,0 l/m 0 min 0 min 0 W/m 37,7 km/h (5 Bft)
21.12.2014 20:30 7,4 C 6,1 C 97 % 1023,5 hPa 0,0 l/m 0 min 0 min 0 W/m 43,9 km/h (6 Bft)
21.12.2014 20:32 7,4 C 6,1 C 97 % 1023,5 hPa 0,0 l/m 0 min 0 min 0 W/m 27,2 km/h (4 Bft)
21.12.2014 20:34 7,4 C 6,1 C 97 % 1023,5 hPa 0,0 l/m 0 min 0 min 0 W/m 27,2 km/h (4 Bft)
21.12.2014 20:36 7,4 C 6,1 C 97 % 1023,4 hPa 0,0 l/m 0 min 0 min 0 W/m 41,8 km/h (6 Bft)
21.12.2014 20:38 7,4 C 6,1 C 97 % 1023,4 hPa 0,0 l/m 0 min 0 min 0 W/m 43,9 km/h (6 Bft)
21.12.2014 20:40 7,4 C 6,1 C 97 % 1023,3 hPa 0,0 l/m 0 min 0 min 0 W/m 43,9 km/h (6 Bft)
21.12.2014 20:42 7,4 C 6,1 C 96 % 1023,4 hPa 0,0 l/m 0 min 0 min 0 W/m 43,9 km/h (6 Bft)
21.12.2014 20:44 7,5 C 6,1 C 96 % 1023,3 hPa 0,0 l/m 0 min 0 min 0 W/m 46,0 km/h (6 Bft)
21.12.2014 20:46 7,5 C 6,1 C 96 % 1023,3 hPa 0,0 l/m 0 min 0 min 0 W/m 31,4 km/h (5 Bft)
21.12.2014 20:48 7,5 C 6,1 C 96 % 1023,3 hPa 0,0 l/m 0 min 0 min 0 W/m 41,8 km/h (6 Bft)
21.12.2014 20:50 7,5 C 6,1 C 96 % 1023,2 hPa 0,0 l/m 0 min 0 min 0 W/m 48,1 km/h (6 Bft)
21.12.2014 20:52 7,5 C 6,1 C 96 % 1023,3 hPa 0,0 l/m 0 min 0 min 0 W/m 39,7 km/h (6 Bft)
21.12.2014 20:54 7,5 C 6,1 C 96 % 1023,3 hPa 0,0 l/m 0 min 0 min 0 W/m 39,7 km/h (6 Bft)
21.12.2014 20:56 7,5 C 6,1 C 96 % 1023,2 hPa 0,0 l/m 0 min 0 min 0 W/m 39,7 km/h (6 Bft)
21.12.2014 20:58 7,5 C 6,1 C 96 % 1023,2 hPa 0,0 l/m 0 min 0 min 0 W/m 39,7 km/h (6 Bft)
21.12.2014 21:00 7,5 C 6,1 C 96 % 1023,3 hPa 0,0 l/m 0 min 0 min 0 W/m 37,7 km/h (5 Bft)
21.12.2014 21:02 7,5 C 6,1 C 96 % 1023,3 hPa 0,0 l/m 0 min 0 min 0 W/m 37,7 km/h (5 Bft)
21.12.2014 21:04 7,5 C 6,1 C 96 % 1023,2 hPa 0,0 l/m 0 min 0 min 0 W/m 39,7 km/h (6 Bft)
21.12.2014 21:06 7,5 C 6,1 C 96 % 1023,2 hPa 0,0 l/m 0 min 0 min 0 W/m 35,6 km/h (5 Bft)
21.12.2014 21:08 7,5 C 6,1 C 96 % 1023,2 hPa 0,0 l/m 0 min 0 min 0 W/m 46,0 km/h (6 Bft)
21.12.2014 21:10 7,5 C 6,1 C 96 % 1023,2 hPa 0,0 l/m 0 min 0 min 0 W/m 41,8 km/h (6 Bft)
21.12.2014 21:12 7,6 C 6,1 C 96 % 1023,2 hPa 0,0 l/m 0 min 0 min 0 W/m 43,9 km/h (6 Bft)
21.12.2014 21:14 7,6 C 6,1 C 96 % 1023,2 hPa 0,0 l/m 0 min 0 min 0 W/m 37,7 km/h (5 Bft)
21.12.2014 21:16 7,6 C 6,1 C 96 % 1023,3 hPa 0,0 l/m 0 min 0 min 0 W/m 35,6 km/h (5 Bft)
21.12.2014 21:18 7,6 C 6,1 C 96 % 1023,2 hPa 0,0 l/m 0 min 0 min 0 W/m 35,6 km/h (5 Bft)
21.12.2014 21:20 7,6 C 6,1 C 96 % 1023,2 hPa 0,0 l/m 0 min 0 min 0 W/m 39,7 km/h (6 Bft)
21.12.2014 21:22 7,6 C 6,1 C 95 % 1023,1 hPa 0,0 l/m 0 min 0 min 0 W/m 43,9 km/h (6 Bft)
21.12.2014 21:24 7,6 C 6,1 C 95 % 1023,2 hPa 0,0 l/m 0 min 0 min 0 W/m 41,8 km/h (6 Bft)
21.12.2014 21:26 7,6 C 6,1 C 95 % 1023,1 hPa 0,0 l/m 0 min 0 min 0 W/m 39,7 km/h (6 Bft)
21.12.2014 21:28 7,6 C 6,1 C 96 % 1023,2 hPa 0,0 l/m 0 min 0 min 0 W/m 33,5 km/h (5 Bft)
21.12.2014 21:30 7,6 C 6,1 C 95 % 1023,1 hPa 0,0 l/m 0 min 0 min 0 W/m 41,8 km/h (6 Bft)
21.12.2014 21:32 7,6 C 6,1 C 95 % 1023,1 hPa 0,0 l/m 0 min 0 min 0 W/m 39,7 km/h (6 Bft)
21.12.2014 21:34 7,6 C 6,1 C 95 % 1023,1 hPa 0,0 l/m 0 min 0 min 0 W/m 39,7 km/h (6 Bft)
21.12.2014 21:36 7,6 C 6,1 C 95 % 1023,1 hPa 0,0 l/m 0 min 0 min 0 W/m 39,7 km/h (6 Bft)
21.12.2014 21:38 7,6 C 6,1 C 95 % 1023,2 hPa 0,0 l/m 0 min 0 min 0 W/m 39,7 km/h (6 Bft)
21.12.2014 21:40 7,6 C 6,1 C 95 % 1023,2 hPa 0,0 l/m 0 min 0 min 0 W/m 37,7 km/h (5 Bft)
21.12.2014 21:42 7,6 C 6,1 C 95 % 1023,2 hPa 0,0 l/m 0 min 0 min 0 W/m 48,1 km/h (6 Bft)
21.12.2014 21:44 7,6 C 6,1 C 95 % 1023,1 hPa 0,0 l/m 0 min 0 min 0 W/m 41,8 km/h (6 Bft)
21.12.2014 21:46 7,6 C 6,1 C 95 % 1023,1 hPa 0,0 l/m 0 min 0 min 0 W/m 35,6 km/h (5 Bft)
21.12.2014 21:48 7,6 C 6,1 C 95 % 1023,1 hPa 0,0 l/m 0 min 0 min 0 W/m 39,7 km/h (6 Bft)
21.12.2014 21:50 7,6 C 6,1 C 95 % 1023,1 hPa 0,0 l/m 0 min 0 min 0 W/m 39,7 km/h (6 Bft)
21.12.2014 21:52 7,6 C 6,1 C 95 % 1023,2 hPa 0,0 l/m 0 min 0 min 0 W/m 50,2 km/h (7 Bft)
21.12.2014 21:54 7,6 C 6,1 C 95 % 1023,2 hPa 0,0 l/m 0 min 0 min 0 W/m 33,5 km/h (5 Bft)
21.12.2014 21:56 7,6 C 6,1 C 95 % 1023,2 hPa 0,0 l/m 0 min 0 min 0 W/m 29,3 km/h (5 Bft)
21.12.2014 21:58 7,6 C 6,1 C 95 % 1023,2 hPa 0,0 l/m 0 min 0 min 0 W/m 33,5 km/h (5 Bft)
21.12.2014 22:00 7,6 C 6,1 C 95 % 1023,2 hPa 0,0 l/m 0 min 0 min 0 W/m 39,7 km/h (6 Bft)
21.12.2014 22:02 7,6 C 6,1 C 95 % 1023,1 hPa 0,0 l/m 0 min 0 min 0 W/m 35,6 km/h (5 Bft)
21.12.2014 22:04 7,6 C 6,1 C 95 % 1023,1 hPa 0,0 l/m 0 min 0 min 0 W/m 39,7 km/h (6 Bft)
21.12.2014 22:06 7,7 C 6,1 C 95 % 1023,1 hPa 0,0 l/m 0 min 0 min 0 W/m 29,3 km/h (5 Bft)
21.12.2014 22:08 7,7 C 6,1 C 94 % 1023,1 hPa 0,0 l/m 0 min 0 min 0 W/m 35,6 km/h (5 Bft)
21.12.2014 22:10 7,7 C 6,1 C 94 % 1023,0 hPa 0,0 l/m 0 min 0 min 0 W/m 43,9 km/h (6 Bft)
21.12.2014 22:12 7,7 C 6,7 C 94 % 1023,1 hPa 0,0 l/m 0 min 0 min 0 W/m 46,0 km/h (6 Bft)
21.12.2014 22:14 7,7 C 6,7 C 94 % 1023,1 hPa 0,0 l/m 0 min 0 min 0 W/m 39,7 km/h (6 Bft)
21.12.2014 22:16 7,7 C 6,7 C 94 % 1023,1 hPa 0,0 l/m 0 min 0 min 0 W/m 39,7 km/h (6 Bft)
21.12.2014 22:18 7,8 C 6,7 C 94 % 1023,1 hPa 0,0 l/m 0 min 0 min 0 W/m 39,7 km/h (6 Bft)
21.12.2014 22:20 7,8 C 6,7 C 94 % 1023,1 hPa 0,0 l/m 0 min 0 min 0 W/m 41,8 km/h (6 Bft)
21.12.2014 22:22 7,8 C 6,7 C 93 % 1023,0 hPa 0,0 l/m 0 min 0 min 0 W/m 58,6 km/h (7 Bft)
21.12.2014 22:24 7,8 C 6,7 C 93 % 1023,0 hPa 0,0 l/m 0 min 0 min 0 W/m 35,6 km/h (5 Bft)
21.12.2014 22:26 7,8 C 6,7 C 93 % 1023,0 hPa 0,0 l/m 0 min 0 min 0 W/m 39,7 km/h (6 Bft)
21.12.2014 22:28 7,8 C 6,7 C 93 % 1023,0 hPa 0,0 l/m 0 min 0 min 0 W/m 35,6 km/h (5 Bft)
21.12.2014 22:30 7,8 C 6,7 C 93 % 1022,9 hPa 0,0 l/m 0 min 0 min 0 W/m 48,1 km/h (6 Bft)
21.12.2014 22:32 7,8 C 6,7 C 93 % 1022,9 hPa 0,0 l/m 0 min 0 min 0 W/m 35,6 km/h (5 Bft)
21.12.2014 22:34 7,9 C 6,7 C 93 % 1022,9 hPa 0,0 l/m 0 min 0 min 0 W/m 46,0 km/h (6 Bft)
21.12.2014 22:36 7,9 C 6,7 C 93 % 1022,8 hPa 0,0 l/m 0 min 0 min 0 W/m 39,7 km/h (6 Bft)
21.12.2014 22:38 7,9 C 6,7 C 93 % 1023,0 hPa 0,0 l/m 0 min 0 min 0 W/m 46,0 km/h (6 Bft)
21.12.2014 22:40 7,9 C 6,7 C 92 % 1022,9 hPa 0,0 l/m 0 min 0 min 0 W/m 29,3 km/h (5 Bft)
21.12.2014 22:42 7,9 C 6,7 C 92 % 1023,0 hPa 0,0 l/m 0 min 0 min 0 W/m 43,9 km/h (6 Bft)
21.12.2014 22:44 7,9 C 6,7 C 92 % 1023,0 hPa 0,0 l/m 0 min 0 min 0 W/m 37,7 km/h (5 Bft)
21.12.2014 22:46 7,9 C 6,7 C 92 % 1022,9 hPa 0,0 l/m 0 min 0 min 0 W/m 37,7 km/h (5 Bft)
21.12.2014 22:48 7,9 C 6,7 C 92 % 1023,0 hPa 0,0 l/m 0 min 0 min 0 W/m 46,0 km/h (6 Bft)
21.12.2014 22:50 7,9 C 6,7 C 92 % 1023,0 hPa 0,0 l/m 0 min 0 min 0 W/m 43,9 km/h (6 Bft)
21.12.2014 22:52 8,0 C 6,7 C 92 % 1023,0 hPa 0,0 l/m 0 min 0 min 0 W/m 41,8 km/h (6 Bft)
21.12.2014 22:54 8,0 C 6,7 C 92 % 1023,0 hPa 0,0 l/m 0 min 0 min 0 W/m 41,8 km/h (6 Bft)
21.12.2014 22:56 8,0 C 6,7 C 91 % 1023,0 hPa 0,0 l/m 0 min 0 min 0 W/m 48,1 km/h (6 Bft)
21.12.2014 22:58 8,0 C 6,7 C 91 % 1022,9 hPa 0,0 l/m 0 min 0 min 0 W/m 41,8 km/h (6 Bft)
21.12.2014 23:00 8,0 C 6,7 C 91 % 1022,9 hPa 0,0 l/m 0 min 0 min 0 W/m 50,2 km/h (7 Bft)
21.12.2014 23:02 8,1 C 6,7 C 91 % 1022,9 hPa 0,0 l/m 0 min 0 min 0 W/m 58,6 km/h (7 Bft)
21.12.2014 23:04 8,1 C 6,7 C 91 % 1022,9 hPa 0,0 l/m 0 min 0 min 0 W/m 41,8 km/h (6 Bft)
21.12.2014 23:06 8,1 C 6,7 C 91 % 1022,9 hPa 0,0 l/m 0 min 0 min 0 W/m 27,2 km/h (4 Bft)
21.12.2014 23:08 8,1 C 6,7 C 91 % 1022,9 hPa 0,0 l/m 0 min 0 min 0 W/m 41,8 km/h (6 Bft)
21.12.2014 23:10 8,1 C 6,7 C 91 % 1022,9 hPa 0,0 l/m 0 min 0 min 0 W/m 39,7 km/h (6 Bft)
21.12.2014 23:12 8,1 C 6,7 C 91 % 1022,9 hPa 0,0 l/m 0 min 0 min 0 W/m 43,9 km/h (6 Bft)
21.12.2014 23:14 8,1 C 6,7 C 91 % 1022,9 hPa 0,0 l/m 0 min 0 min 0 W/m 41,8 km/h (6 Bft)
21.12.2014 23:16 8,1 C 6,7 C 91 % 1022,9 hPa 0,0 l/m 0 min 0 min 0 W/m 43,9 km/h (6 Bft)
21.12.2014 23:18 8,0 C 6,7 C 91 % 1022,8 hPa 0,0 l/m 0 min 0 min 0 W/m 46,0 km/h (6 Bft)
21.12.2014 23:20 8,0 C 6,7 C 91 % 1022,8 hPa 0,0 l/m 0 min 0 min 0 W/m 39,7 km/h (6 Bft)
21.12.2014 23:22 8,0 C 6,7 C 91 % 1022,9 hPa 0,0 l/m 0 min 0 min 0 W/m 37,7 km/h (5 Bft)
21.12.2014 23:24 8,0 C 6,7 C 91 % 1022,8 hPa 0,0 l/m 0 min 0 min 0 W/m 43,9 km/h (6 Bft)
21.12.2014 23:26 8,0 C 6,7 C 91 % 1022,9 hPa 0,0 l/m 0 min 0 min 0 W/m 46,0 km/h (6 Bft)
21.12.2014 23:28 8,0 C 6,7 C 91 % 1022,9 hPa 0,0 l/m 0 min 0 min 0 W/m 39,7 km/h (6 Bft)
21.12.2014 23:30 8,0 C 6,7 C 91 % 1022,8 hPa 0,0 l/m 0 min 0 min 0 W/m 54,4 km/h (7 Bft)
21.12.2014 23:32 8,1 C 6,7 C 91 % 1022,7 hPa 0,0 l/m 0 min 0 min 0 W/m 31,4 km/h (5 Bft)
21.12.2014 23:34 8,1 C 6,7 C 90 % 1022,8 hPa 0,0 l/m 0 min 0 min 0 W/m 41,8 km/h (6 Bft)
21.12.2014 23:36 8,1 C 6,7 C 90 % 1022,8 hPa 0,0 l/m 0 min 0 min 0 W/m 37,7 km/h (5 Bft)
21.12.2014 23:38 8,1 C 6,7 C 90 % 1022,8 hPa 0,0 l/m 0 min 0 min 0 W/m 35,6 km/h (5 Bft)
21.12.2014 23:40 8,1 C 6,7 C 90 % 1022,9 hPa 0,0 l/m 0 min 0 min 0 W/m 41,8 km/h (6 Bft)
21.12.2014 23:42 8,1 C 6,7 C 90 % 1022,8 hPa 0,0 l/m 0 min 0 min 0 W/m 33,5 km/h (5 Bft)
21.12.2014 23:44 8,1 C 6,7 C 90 % 1022,8 hPa 0,0 l/m 0 min 0 min 0 W/m 37,7 km/h (5 Bft)
21.12.2014 23:46 8,1 C 6,7 C 90 % 1022,9 hPa 0,0 l/m 0 min 0 min 0 W/m 46,0 km/h (6 Bft)
21.12.2014 23:48 8,1 C 6,7 C 90 % 1023,0 hPa 0,0 l/m 0 min 0 min 0 W/m 43,9 km/h (6 Bft)
21.12.2014 23:50 8,1 C 6,7 C 90 % 1022,9 hPa 0,0 l/m 0 min 0 min 0 W/m 37,7 km/h (5 Bft)
21.12.2014 23:52 8,1 C 6,7 C 90 % 1022,9 hPa 0,0 l/m 0 min 0 min 0 W/m 41,8 km/h (6 Bft)
21.12.2014 23:54 8,1 C 6,7 C 90 % 1022,7 hPa 0,0 l/m 0 min 0 min 0 W/m 37,7 km/h (5 Bft)
21.12.2014 23:56 8,1 C 6,7 C 90 % 1022,6 hPa 0,0 l/m 0 min 0 min 0 W/m 41,8 km/h (6 Bft)
21.12.2014 23:58 8,1 C 6,7 C 90 % 1022,7 hPa 0,0 l/m 0 min 0 min 0 W/m 37,7 km/h (5 Bft)
_ Min-Zeit 06:48 00:00 13:16 23:56 - - - - 00:10
Minimum _ 3,8 C 2,8 C 89 % 1022,6 hPa - - - - 10,5 km/h (2 Bft)
_ Max-Zeit 23:02 22:12 18:56 07:54 17:06 09:18 14:40 12:10 22:22
Maximum _ 8,1 C 6,7 C 97 % 1029,3 hPa 0,2 l/m 2 min 2 min 118 W/m 58,6 km/h
W-SW (7 Bft)
Durchschnitt _ 6,0 C 4,7 C 94 % 1026,7 hPa #0,8 l/m #36 min. #1:04 h 44 W/m 25,5 km/h (4 Bft)
© 2015 W. Hausmann